<?xml version="1.0" encoding="UTF-8" standalone="no" ?>
<gpx xmlns="http://www.topografix.com/GPX/1/1" xmlns:xsi="http://www.w3.org/2001/XMLSchema-instance" xsi:schemaLocation="http://www.topografix.com/GPX/1/1 http://www.topografix.com/GPX/1/1/gpx.xsd" version="1.1" creator="VisuGPX - https://www.visugpx.com">
  <metadata>
    <name>2020-09-11T07:00:15Z</name>
    <desc><![CDATA[10 marcheuses, très beau temps]]></desc>
  </metadata>
  <trk>
    <name><![CDATA[2020-09-11T07:00:15Z]]></name>
    <trkseg>
      <trkpt lat="45.50045" lon="6.04963">
        <ele>298.2522</ele>
        <time>2020-09-11T07:00:14Z</time>
      </trkpt>
      <trkpt lat="45.50046" lon="6.04949">
        <ele>294.7448918</ele>
        <time>2020-09-11T07:02:01Z</time>
      </trkpt>
      <trkpt lat="45.50055" lon="6.04943">
        <ele>293.1543319</ele>
        <time>2020-09-11T07:02:09Z</time>
      </trkpt>
      <trkpt lat="45.50038" lon="6.04969">
        <ele>294.8516832</ele>
        <time>2020-09-11T07:08:38Z</time>
      </trkpt>
      <trkpt lat="45.50033" lon="6.0498">
        <ele>296.3278741</ele>
        <time>2020-09-11T07:08:52Z</time>
      </trkpt>
      <trkpt lat="45.50038" lon="6.04991">
        <ele>299.2972873</ele>
        <time>2020-09-11T07:09:01Z</time>
      </trkpt>
      <trkpt lat="45.50029" lon="6.04995">
        <ele>299.0004891</ele>
        <time>2020-09-11T07:09:09Z</time>
      </trkpt>
      <trkpt lat="45.5002" lon="6.04998">
        <ele>298.434302</ele>
        <time>2020-09-11T07:09:18Z</time>
      </trkpt>
      <trkpt lat="45.50012" lon="6.05003">
        <ele>299.9577111</ele>
        <time>2020-09-11T07:09:28Z</time>
      </trkpt>
      <trkpt lat="45.50003" lon="6.05008">
        <ele>299.3218752</ele>
        <time>2020-09-11T07:09:36Z</time>
      </trkpt>
      <trkpt lat="45.49994" lon="6.05012">
        <ele>300.3606932</ele>
        <time>2020-09-11T07:09:42Z</time>
      </trkpt>
      <trkpt lat="45.49986" lon="6.0502">
        <ele>306.1540144</ele>
        <time>2020-09-11T07:09:59Z</time>
      </trkpt>
      <trkpt lat="45.49984" lon="6.05033">
        <ele>305.2029077</ele>
        <time>2020-09-11T07:10:13Z</time>
      </trkpt>
      <trkpt lat="45.49988" lon="6.05046">
        <ele>303.7854188</ele>
        <time>2020-09-11T07:10:23Z</time>
      </trkpt>
      <trkpt lat="45.49992" lon="6.05059">
        <ele>303.9391395</ele>
        <time>2020-09-11T07:10:30Z</time>
      </trkpt>
      <trkpt lat="45.49997" lon="6.0507">
        <ele>303.1688179</ele>
        <time>2020-09-11T07:10:38Z</time>
      </trkpt>
      <trkpt lat="45.50002" lon="6.05082">
        <ele>302.9562657</ele>
        <time>2020-09-11T07:10:46Z</time>
      </trkpt>
      <trkpt lat="45.50008" lon="6.05093">
        <ele>302.2312402</ele>
        <time>2020-09-11T07:10:54Z</time>
      </trkpt>
      <trkpt lat="45.50013" lon="6.05104">
        <ele>302.4053929</ele>
        <time>2020-09-11T07:11:01Z</time>
      </trkpt>
      <trkpt lat="45.50017" lon="6.05116">
        <ele>300.4067058</ele>
        <time>2020-09-11T07:11:10Z</time>
      </trkpt>
      <trkpt lat="45.50022" lon="6.05129">
        <ele>300.3602637</ele>
        <time>2020-09-11T07:11:19Z</time>
      </trkpt>
      <trkpt lat="45.50028" lon="6.0514">
        <ele>300.8949311</ele>
        <time>2020-09-11T07:11:26Z</time>
      </trkpt>
      <trkpt lat="45.50033" lon="6.05153">
        <ele>301.3803754</ele>
        <time>2020-09-11T07:11:34Z</time>
      </trkpt>
      <trkpt lat="45.50037" lon="6.05165">
        <ele>300.9870311</ele>
        <time>2020-09-11T07:11:42Z</time>
      </trkpt>
      <trkpt lat="45.50041" lon="6.05178">
        <ele>301.1536098</ele>
        <time>2020-09-11T07:11:49Z</time>
      </trkpt>
      <trkpt lat="45.50045" lon="6.0519">
        <ele>301.1669408</ele>
        <time>2020-09-11T07:11:58Z</time>
      </trkpt>
      <trkpt lat="45.50046" lon="6.05205">
        <ele>301.5602773</ele>
        <time>2020-09-11T07:12:06Z</time>
      </trkpt>
      <trkpt lat="45.50048" lon="6.05218">
        <ele>302.971512</ele>
        <time>2020-09-11T07:12:13Z</time>
      </trkpt>
      <trkpt lat="45.50048" lon="6.05232">
        <ele>303.8858113</ele>
        <time>2020-09-11T07:12:19Z</time>
      </trkpt>
      <trkpt lat="45.50049" lon="6.05245">
        <ele>303.2511979</ele>
        <time>2020-09-11T07:12:25Z</time>
      </trkpt>
      <trkpt lat="45.5005" lon="6.05258">
        <ele>304.8134447</ele>
        <time>2020-09-11T07:12:31Z</time>
      </trkpt>
      <trkpt lat="45.50053" lon="6.05271">
        <ele>306.2097203</ele>
        <time>2020-09-11T07:12:39Z</time>
      </trkpt>
      <trkpt lat="45.50059" lon="6.05283">
        <ele>308.0533748</ele>
        <time>2020-09-11T07:12:54Z</time>
      </trkpt>
      <trkpt lat="45.50051" lon="6.05258">
        <ele>303.746029</ele>
        <time>2020-09-11T07:15:38Z</time>
      </trkpt>
      <trkpt lat="45.50052" lon="6.05245">
        <ele>302.3768344</ele>
        <time>2020-09-11T07:15:50Z</time>
      </trkpt>
      <trkpt lat="45.5005" lon="6.05232">
        <ele>301.3011236</ele>
        <time>2020-09-11T07:15:58Z</time>
      </trkpt>
      <trkpt lat="45.5005" lon="6.05218">
        <ele>300.9388404</ele>
        <time>2020-09-11T07:16:06Z</time>
      </trkpt>
      <trkpt lat="45.50053" lon="6.05231">
        <ele>302.2863535</ele>
        <time>2020-09-11T07:16:34Z</time>
      </trkpt>
      <trkpt lat="45.50054" lon="6.05243">
        <ele>303.1768632</ele>
        <time>2020-09-11T07:16:42Z</time>
      </trkpt>
      <trkpt lat="45.50056" lon="6.05256">
        <ele>303.5162383</ele>
        <time>2020-09-11T07:16:50Z</time>
      </trkpt>
      <trkpt lat="45.50059" lon="6.0527">
        <ele>304.7501008</ele>
        <time>2020-09-11T07:17:00Z</time>
      </trkpt>
      <trkpt lat="45.50057" lon="6.05282">
        <ele>305.093486</ele>
        <time>2020-09-11T07:17:17Z</time>
      </trkpt>
      <trkpt lat="45.50056" lon="6.05295">
        <ele>308.905217</ele>
        <time>2020-09-11T07:17:45Z</time>
      </trkpt>
      <trkpt lat="45.50047" lon="6.053">
        <ele>310.7741456</ele>
        <time>2020-09-11T07:17:58Z</time>
      </trkpt>
      <trkpt lat="45.50039" lon="6.05292">
        <ele>312.1942571</ele>
        <time>2020-09-11T07:18:06Z</time>
      </trkpt>
      <trkpt lat="45.50035" lon="6.0528">
        <ele>311.4146431</ele>
        <time>2020-09-11T07:18:14Z</time>
      </trkpt>
      <trkpt lat="45.50028" lon="6.05271">
        <ele>311.3028339</ele>
        <time>2020-09-11T07:18:24Z</time>
      </trkpt>
      <trkpt lat="45.50026" lon="6.05284">
        <ele>312.3482727</ele>
        <time>2020-09-11T07:18:40Z</time>
      </trkpt>
      <trkpt lat="45.50029" lon="6.05297">
        <ele>312.3016994</ele>
        <time>2020-09-11T07:18:50Z</time>
      </trkpt>
      <trkpt lat="45.50032" lon="6.05309">
        <ele>312.8653666</ele>
        <time>2020-09-11T07:19:00Z</time>
      </trkpt>
      <trkpt lat="45.50035" lon="6.05321">
        <ele>315.8325849</ele>
        <time>2020-09-11T07:19:11Z</time>
      </trkpt>
      <trkpt lat="45.50038" lon="6.05334">
        <ele>318.5846578</ele>
        <time>2020-09-11T07:19:29Z</time>
      </trkpt>
      <trkpt lat="45.50029" lon="6.05339">
        <ele>321.5612814</ele>
        <time>2020-09-11T07:19:49Z</time>
      </trkpt>
      <trkpt lat="45.50021" lon="6.05346">
        <ele>323.635039</ele>
        <time>2020-09-11T07:20:04Z</time>
      </trkpt>
      <trkpt lat="45.50023" lon="6.05359">
        <ele>328.4134087</ele>
        <time>2020-09-11T07:20:39Z</time>
      </trkpt>
      <trkpt lat="45.50026" lon="6.05371">
        <ele>330.4867857</ele>
        <time>2020-09-11T07:20:50Z</time>
      </trkpt>
      <trkpt lat="45.50036" lon="6.05371">
        <ele>332.2060811</ele>
        <time>2020-09-11T07:21:01Z</time>
      </trkpt>
      <trkpt lat="45.50045" lon="6.05371">
        <ele>334.298757</ele>
        <time>2020-09-11T07:21:12Z</time>
      </trkpt>
      <trkpt lat="45.50055" lon="6.0537">
        <ele>335.4781791</ele>
        <time>2020-09-11T07:21:21Z</time>
      </trkpt>
      <trkpt lat="45.50065" lon="6.05369">
        <ele>337.2107848</ele>
        <time>2020-09-11T07:21:29Z</time>
      </trkpt>
      <trkpt lat="45.50074" lon="6.05371">
        <ele>338.1145101</ele>
        <time>2020-09-11T07:21:38Z</time>
      </trkpt>
      <trkpt lat="45.50083" lon="6.05371">
        <ele>339.7139969</ele>
        <time>2020-09-11T07:21:48Z</time>
      </trkpt>
      <trkpt lat="45.50092" lon="6.05372">
        <ele>341.4004819</ele>
        <time>2020-09-11T07:21:57Z</time>
      </trkpt>
      <trkpt lat="45.50101" lon="6.05375">
        <ele>343.0994879</ele>
        <time>2020-09-11T07:22:07Z</time>
      </trkpt>
      <trkpt lat="45.50109" lon="6.0538">
        <ele>342.9713677</ele>
        <time>2020-09-11T07:22:15Z</time>
      </trkpt>
      <trkpt lat="45.50118" lon="6.05384">
        <ele>344.9372376</ele>
        <time>2020-09-11T07:22:24Z</time>
      </trkpt>
      <trkpt lat="45.50127" lon="6.05388">
        <ele>346.8001359</ele>
        <time>2020-09-11T07:22:34Z</time>
      </trkpt>
      <trkpt lat="45.50133" lon="6.054">
        <ele>347.2504942</ele>
        <time>2020-09-11T07:22:44Z</time>
      </trkpt>
      <trkpt lat="45.50137" lon="6.05413">
        <ele>348.5229123</ele>
        <time>2020-09-11T07:22:54Z</time>
      </trkpt>
      <trkpt lat="45.50141" lon="6.05424">
        <ele>348.5312991</ele>
        <time>2020-09-11T07:23:04Z</time>
      </trkpt>
      <trkpt lat="45.50138" lon="6.05436">
        <ele>345.7501219</ele>
        <time>2020-09-11T07:23:23Z</time>
      </trkpt>
      <trkpt lat="45.50137" lon="6.05449">
        <ele>346.6103336</ele>
        <time>2020-09-11T07:23:31Z</time>
      </trkpt>
      <trkpt lat="45.50136" lon="6.05463">
        <ele>347.398026</ele>
        <time>2020-09-11T07:23:40Z</time>
      </trkpt>
      <trkpt lat="45.50131" lon="6.05475">
        <ele>348.0384934</ele>
        <time>2020-09-11T07:23:52Z</time>
      </trkpt>
      <trkpt lat="45.50122" lon="6.0547">
        <ele>349.4393239</ele>
        <time>2020-09-11T07:24:04Z</time>
      </trkpt>
      <trkpt lat="45.50122" lon="6.05457">
        <ele>352.1815885</ele>
        <time>2020-09-11T07:24:15Z</time>
      </trkpt>
      <trkpt lat="45.50121" lon="6.05443">
        <ele>354.1611154</ele>
        <time>2020-09-11T07:24:26Z</time>
      </trkpt>
      <trkpt lat="45.50119" lon="6.05429">
        <ele>354.647581</ele>
        <time>2020-09-11T07:24:35Z</time>
      </trkpt>
      <trkpt lat="45.50115" lon="6.05417">
        <ele>354.0793185</ele>
        <time>2020-09-11T07:24:46Z</time>
      </trkpt>
      <trkpt lat="45.50108" lon="6.05407">
        <ele>353.1230872</ele>
        <time>2020-09-11T07:24:56Z</time>
      </trkpt>
      <trkpt lat="45.501" lon="6.05402">
        <ele>352.2658271</ele>
        <time>2020-09-11T07:25:07Z</time>
      </trkpt>
      <trkpt lat="45.50091" lon="6.05404">
        <ele>352.4395535</ele>
        <time>2020-09-11T07:25:20Z</time>
      </trkpt>
      <trkpt lat="45.50081" lon="6.05404">
        <ele>353.32023</ele>
        <time>2020-09-11T07:25:31Z</time>
      </trkpt>
      <trkpt lat="45.50071" lon="6.05404">
        <ele>355.286837</ele>
        <time>2020-09-11T07:25:49Z</time>
      </trkpt>
      <trkpt lat="45.5007" lon="6.05417">
        <ele>357.1970278</ele>
        <time>2020-09-11T07:26:58Z</time>
      </trkpt>
      <trkpt lat="45.50064" lon="6.05426">
        <ele>361.6257227</ele>
        <time>2020-09-11T07:27:30Z</time>
      </trkpt>
      <trkpt lat="45.50061" lon="6.05439">
        <ele>362.7957189</ele>
        <time>2020-09-11T07:28:06Z</time>
      </trkpt>
      <trkpt lat="45.50054" lon="6.05448">
        <ele>364.3173543</ele>
        <time>2020-09-11T07:28:41Z</time>
      </trkpt>
      <trkpt lat="45.50047" lon="6.05457">
        <ele>364.8074138</ele>
        <time>2020-09-11T07:28:52Z</time>
      </trkpt>
      <trkpt lat="45.50041" lon="6.05467">
        <ele>365.9322272</ele>
        <time>2020-09-11T07:29:00Z</time>
      </trkpt>
      <trkpt lat="45.50032" lon="6.05472">
        <ele>367.2821597</ele>
        <time>2020-09-11T07:29:09Z</time>
      </trkpt>
      <trkpt lat="45.50023" lon="6.05475">
        <ele>369.1469833</ele>
        <time>2020-09-11T07:29:19Z</time>
      </trkpt>
      <trkpt lat="45.50013" lon="6.05479">
        <ele>368.7091878</ele>
        <time>2020-09-11T07:29:56Z</time>
      </trkpt>
      <trkpt lat="45.50006" lon="6.05488">
        <ele>365.4258876</ele>
        <time>2020-09-11T07:30:16Z</time>
      </trkpt>
      <trkpt lat="45.50007" lon="6.05501">
        <ele>363.5258289</ele>
        <time>2020-09-11T07:30:26Z</time>
      </trkpt>
      <trkpt lat="45.50007" lon="6.05514">
        <ele>363.3261179</ele>
        <time>2020-09-11T07:30:46Z</time>
      </trkpt>
      <trkpt lat="45.50007" lon="6.05527">
        <ele>364.2340184</ele>
        <time>2020-09-11T07:30:55Z</time>
      </trkpt>
      <trkpt lat="45.50009" lon="6.0554">
        <ele>363.7234239</ele>
        <time>2020-09-11T07:31:04Z</time>
      </trkpt>
      <trkpt lat="45.50012" lon="6.05553">
        <ele>363.3936086</ele>
        <time>2020-09-11T07:31:13Z</time>
      </trkpt>
      <trkpt lat="45.50015" lon="6.05567">
        <ele>363.8945344</ele>
        <time>2020-09-11T07:31:21Z</time>
      </trkpt>
      <trkpt lat="45.50016" lon="6.0558">
        <ele>363.6130489</ele>
        <time>2020-09-11T07:31:29Z</time>
      </trkpt>
      <trkpt lat="45.50012" lon="6.05593">
        <ele>363.550041</ele>
        <time>2020-09-11T07:31:39Z</time>
      </trkpt>
      <trkpt lat="45.50005" lon="6.05602">
        <ele>361.0352068</ele>
        <time>2020-09-11T07:31:47Z</time>
      </trkpt>
      <trkpt lat="45.49996" lon="6.05607">
        <ele>359.96724</ele>
        <time>2020-09-11T07:31:57Z</time>
      </trkpt>
      <trkpt lat="45.49987" lon="6.05605">
        <ele>358.0353654</ele>
        <time>2020-09-11T07:32:06Z</time>
      </trkpt>
      <trkpt lat="45.49978" lon="6.05599">
        <ele>357.1712627</ele>
        <time>2020-09-11T07:32:13Z</time>
      </trkpt>
      <trkpt lat="45.4997" lon="6.05593">
        <ele>354.754889</ele>
        <time>2020-09-11T07:32:22Z</time>
      </trkpt>
      <trkpt lat="45.49964" lon="6.05603">
        <ele>350.9701908</ele>
        <time>2020-09-11T07:32:31Z</time>
      </trkpt>
      <trkpt lat="45.49963" lon="6.05618">
        <ele>350.1139778</ele>
        <time>2020-09-11T07:32:40Z</time>
      </trkpt>
      <trkpt lat="45.49962" lon="6.05633">
        <ele>349.7610007</ele>
        <time>2020-09-11T07:32:48Z</time>
      </trkpt>
      <trkpt lat="45.49962" lon="6.05647">
        <ele>349.8793389</ele>
        <time>2020-09-11T07:32:57Z</time>
      </trkpt>
      <trkpt lat="45.49966" lon="6.05659">
        <ele>348.3053529</ele>
        <time>2020-09-11T07:33:04Z</time>
      </trkpt>
      <trkpt lat="45.49972" lon="6.05669">
        <ele>347.9428761</ele>
        <time>2020-09-11T07:33:12Z</time>
      </trkpt>
      <trkpt lat="45.4998" lon="6.05674">
        <ele>348.2404848</ele>
        <time>2020-09-11T07:33:22Z</time>
      </trkpt>
      <trkpt lat="45.49989" lon="6.0568">
        <ele>348.8576136</ele>
        <time>2020-09-11T07:33:31Z</time>
      </trkpt>
      <trkpt lat="45.49995" lon="6.05691">
        <ele>347.0740275</ele>
        <time>2020-09-11T07:33:41Z</time>
      </trkpt>
      <trkpt lat="45.50005" lon="6.05698">
        <ele>346.1370288</ele>
        <time>2020-09-11T07:33:49Z</time>
      </trkpt>
      <trkpt lat="45.50014" lon="6.05704">
        <ele>344.7989357</ele>
        <time>2020-09-11T07:33:58Z</time>
      </trkpt>
      <trkpt lat="45.50023" lon="6.05707">
        <ele>342.9261993</ele>
        <time>2020-09-11T07:34:08Z</time>
      </trkpt>
      <trkpt lat="45.50032" lon="6.05702">
        <ele>339.5070979</ele>
        <time>2020-09-11T07:34:19Z</time>
      </trkpt>
      <trkpt lat="45.50042" lon="6.05698">
        <ele>337.7676607</ele>
        <time>2020-09-11T07:34:29Z</time>
      </trkpt>
      <trkpt lat="45.50051" lon="6.05696">
        <ele>336.5456682</ele>
        <time>2020-09-11T07:34:38Z</time>
      </trkpt>
      <trkpt lat="45.50061" lon="6.05692">
        <ele>334.485788</ele>
        <time>2020-09-11T07:34:49Z</time>
      </trkpt>
      <trkpt lat="45.50071" lon="6.05688">
        <ele>333.5110168</ele>
        <time>2020-09-11T07:34:57Z</time>
      </trkpt>
      <trkpt lat="45.5008" lon="6.05683">
        <ele>332.8702146</ele>
        <time>2020-09-11T07:35:04Z</time>
      </trkpt>
      <trkpt lat="45.50093" lon="6.05679">
        <ele>333.6708118</ele>
        <time>2020-09-11T07:35:09Z</time>
      </trkpt>
      <trkpt lat="45.50101" lon="6.05672">
        <ele>332.3339622</ele>
        <time>2020-09-11T07:35:21Z</time>
      </trkpt>
      <trkpt lat="45.50109" lon="6.05665">
        <ele>330.3405145</ele>
        <time>2020-09-11T07:35:31Z</time>
      </trkpt>
      <trkpt lat="45.50118" lon="6.05671">
        <ele>328.9232876</ele>
        <time>2020-09-11T07:35:38Z</time>
      </trkpt>
      <trkpt lat="45.50119" lon="6.05684">
        <ele>327.2743076</ele>
        <time>2020-09-11T07:35:48Z</time>
      </trkpt>
      <trkpt lat="45.50119" lon="6.05697">
        <ele>326.9413919</ele>
        <time>2020-09-11T07:35:57Z</time>
      </trkpt>
      <trkpt lat="45.5012" lon="6.05711">
        <ele>325.0200844</ele>
        <time>2020-09-11T07:36:06Z</time>
      </trkpt>
      <trkpt lat="45.50123" lon="6.05723">
        <ele>323.6830434</ele>
        <time>2020-09-11T07:36:15Z</time>
      </trkpt>
      <trkpt lat="45.50125" lon="6.05736">
        <ele>321.7796452</ele>
        <time>2020-09-11T07:36:23Z</time>
      </trkpt>
      <trkpt lat="45.50128" lon="6.05749">
        <ele>320.314231</ele>
        <time>2020-09-11T07:36:33Z</time>
      </trkpt>
      <trkpt lat="45.50132" lon="6.05761">
        <ele>318.5898237</ele>
        <time>2020-09-11T07:36:43Z</time>
      </trkpt>
      <trkpt lat="45.50136" lon="6.05774">
        <ele>317.17978</ele>
        <time>2020-09-11T07:36:52Z</time>
      </trkpt>
      <trkpt lat="45.50142" lon="6.05785">
        <ele>316.4815466</ele>
        <time>2020-09-11T07:36:59Z</time>
      </trkpt>
      <trkpt lat="45.50149" lon="6.05795">
        <ele>315.7369879</ele>
        <time>2020-09-11T07:37:07Z</time>
      </trkpt>
      <trkpt lat="45.50154" lon="6.05807">
        <ele>313.6576768</ele>
        <time>2020-09-11T07:37:16Z</time>
      </trkpt>
      <trkpt lat="45.50159" lon="6.05818">
        <ele>311.3802011</ele>
        <time>2020-09-11T07:37:26Z</time>
      </trkpt>
      <trkpt lat="45.50166" lon="6.05828">
        <ele>309.9955182</ele>
        <time>2020-09-11T07:37:33Z</time>
      </trkpt>
      <trkpt lat="45.50175" lon="6.05834">
        <ele>308.7015051</ele>
        <time>2020-09-11T07:37:39Z</time>
      </trkpt>
      <trkpt lat="45.50184" lon="6.05825">
        <ele>308.0834862</ele>
        <time>2020-09-11T07:39:22Z</time>
      </trkpt>
      <trkpt lat="45.50187" lon="6.05813">
        <ele>308.5306652</ele>
        <time>2020-09-11T07:39:34Z</time>
      </trkpt>
      <trkpt lat="45.50192" lon="6.05801">
        <ele>308.7380122</ele>
        <time>2020-09-11T07:39:45Z</time>
      </trkpt>
      <trkpt lat="45.50198" lon="6.0579">
        <ele>308.862778</ele>
        <time>2020-09-11T07:39:54Z</time>
      </trkpt>
      <trkpt lat="45.50199" lon="6.05776">
        <ele>308.4588713</ele>
        <time>2020-09-11T07:40:05Z</time>
      </trkpt>
      <trkpt lat="45.50198" lon="6.05764">
        <ele>308.5561748</ele>
        <time>2020-09-11T07:40:14Z</time>
      </trkpt>
      <trkpt lat="45.50202" lon="6.05751">
        <ele>309.499567</ele>
        <time>2020-09-11T07:40:25Z</time>
      </trkpt>
      <trkpt lat="45.50204" lon="6.05737">
        <ele>309.890649</ele>
        <time>2020-09-11T07:40:31Z</time>
      </trkpt>
      <trkpt lat="45.50208" lon="6.05725">
        <ele>309.5836132</ele>
        <time>2020-09-11T07:40:41Z</time>
      </trkpt>
      <trkpt lat="45.50214" lon="6.05714">
        <ele>309.5019219</ele>
        <time>2020-09-11T07:40:58Z</time>
      </trkpt>
      <trkpt lat="45.50217" lon="6.05702">
        <ele>309.2608001</ele>
        <time>2020-09-11T07:41:08Z</time>
      </trkpt>
      <trkpt lat="45.50218" lon="6.05688">
        <ele>308.5314069</ele>
        <time>2020-09-11T07:41:17Z</time>
      </trkpt>
      <trkpt lat="45.50219" lon="6.05675">
        <ele>308.3480461</ele>
        <time>2020-09-11T07:41:27Z</time>
      </trkpt>
      <trkpt lat="45.50228" lon="6.0567">
        <ele>307.796517</ele>
        <time>2020-09-11T07:41:36Z</time>
      </trkpt>
      <trkpt lat="45.50238" lon="6.0567">
        <ele>306.8302533</ele>
        <time>2020-09-11T07:41:42Z</time>
      </trkpt>
      <trkpt lat="45.50247" lon="6.05672">
        <ele>305.3429533</ele>
        <time>2020-09-11T07:41:49Z</time>
      </trkpt>
      <trkpt lat="45.50251" lon="6.05686">
        <ele>302.5113487</ele>
        <time>2020-09-11T07:42:05Z</time>
      </trkpt>
      <trkpt lat="45.50253" lon="6.05699">
        <ele>301.8498619</ele>
        <time>2020-09-11T07:42:15Z</time>
      </trkpt>
      <trkpt lat="45.5025" lon="6.05712">
        <ele>300.8985642</ele>
        <time>2020-09-11T07:42:26Z</time>
      </trkpt>
      <trkpt lat="45.50255" lon="6.05725">
        <ele>299.9271351</ele>
        <time>2020-09-11T07:42:42Z</time>
      </trkpt>
      <trkpt lat="45.50256" lon="6.05739">
        <ele>300.2025216</ele>
        <time>2020-09-11T07:42:58Z</time>
      </trkpt>
      <trkpt lat="45.50257" lon="6.05752">
        <ele>300.2456632</ele>
        <time>2020-09-11T07:43:08Z</time>
      </trkpt>
      <trkpt lat="45.50259" lon="6.05766">
        <ele>299.9974303</ele>
        <time>2020-09-11T07:43:17Z</time>
      </trkpt>
      <trkpt lat="45.50259" lon="6.05779">
        <ele>299.7409493</ele>
        <time>2020-09-11T07:43:25Z</time>
      </trkpt>
      <trkpt lat="45.50259" lon="6.05793">
        <ele>299.9860509</ele>
        <time>2020-09-11T07:43:33Z</time>
      </trkpt>
      <trkpt lat="45.50258" lon="6.05806">
        <ele>299.5781826</ele>
        <time>2020-09-11T07:43:43Z</time>
      </trkpt>
      <trkpt lat="45.50256" lon="6.05819">
        <ele>299.9255417</ele>
        <time>2020-09-11T07:43:52Z</time>
      </trkpt>
      <trkpt lat="45.50254" lon="6.05832">
        <ele>300.3742517</ele>
        <time>2020-09-11T07:44:00Z</time>
      </trkpt>
      <trkpt lat="45.50255" lon="6.05846">
        <ele>300.6323127</ele>
        <time>2020-09-11T07:44:08Z</time>
      </trkpt>
      <trkpt lat="45.50256" lon="6.05861">
        <ele>300.9669878</ele>
        <time>2020-09-11T07:44:16Z</time>
      </trkpt>
      <trkpt lat="45.50253" lon="6.05874">
        <ele>300.5386168</ele>
        <time>2020-09-11T07:44:23Z</time>
      </trkpt>
      <trkpt lat="45.5025" lon="6.05887">
        <ele>300.8487372</ele>
        <time>2020-09-11T07:44:30Z</time>
      </trkpt>
      <trkpt lat="45.50246" lon="6.059">
        <ele>299.9780533</ele>
        <time>2020-09-11T07:44:40Z</time>
      </trkpt>
      <trkpt lat="45.50243" lon="6.05912">
        <ele>299.8814404</ele>
        <time>2020-09-11T07:44:48Z</time>
      </trkpt>
      <trkpt lat="45.50237" lon="6.05922">
        <ele>299.9142442</ele>
        <time>2020-09-11T07:44:55Z</time>
      </trkpt>
      <trkpt lat="45.50235" lon="6.05936">
        <ele>300.3245998</ele>
        <time>2020-09-11T07:45:03Z</time>
      </trkpt>
      <trkpt lat="45.50231" lon="6.05948">
        <ele>301.1127524</ele>
        <time>2020-09-11T07:45:11Z</time>
      </trkpt>
      <trkpt lat="45.50221" lon="6.05946">
        <ele>301.2478201</ele>
        <time>2020-09-11T07:45:21Z</time>
      </trkpt>
      <trkpt lat="45.50213" lon="6.05954">
        <ele>301.3202742</ele>
        <time>2020-09-11T07:45:30Z</time>
      </trkpt>
      <trkpt lat="45.50204" lon="6.05958">
        <ele>300.9046874</ele>
        <time>2020-09-11T07:45:50Z</time>
      </trkpt>
      <trkpt lat="45.50195" lon="6.0596">
        <ele>301.4468593</ele>
        <time>2020-09-11T07:45:58Z</time>
      </trkpt>
      <trkpt lat="45.50188" lon="6.05971">
        <ele>301.8931703</ele>
        <time>2020-09-11T07:46:08Z</time>
      </trkpt>
      <trkpt lat="45.50196" lon="6.05977">
        <ele>300.5233448</ele>
        <time>2020-09-11T07:46:21Z</time>
      </trkpt>
      <trkpt lat="45.5019" lon="6.05987">
        <ele>298.3635553</ele>
        <time>2020-09-11T07:46:52Z</time>
      </trkpt>
      <trkpt lat="45.50182" lon="6.05992">
        <ele>296.8988148</ele>
        <time>2020-09-11T07:47:03Z</time>
      </trkpt>
      <trkpt lat="45.50173" lon="6.05994">
        <ele>296.2965725</ele>
        <time>2020-09-11T07:47:12Z</time>
      </trkpt>
      <trkpt lat="45.50165" lon="6.06003">
        <ele>295.255703</ele>
        <time>2020-09-11T07:47:25Z</time>
      </trkpt>
      <trkpt lat="45.50175" lon="6.06005">
        <ele>294.660241</ele>
        <time>2020-09-11T07:47:35Z</time>
      </trkpt>
      <trkpt lat="45.50184" lon="6.06003">
        <ele>295.4294708</ele>
        <time>2020-09-11T07:47:45Z</time>
      </trkpt>
      <trkpt lat="45.50189" lon="6.06014">
        <ele>292.4134852</ele>
        <time>2020-09-11T07:48:01Z</time>
      </trkpt>
      <trkpt lat="45.50192" lon="6.06027">
        <ele>290.4266113</ele>
        <time>2020-09-11T07:48:17Z</time>
      </trkpt>
      <trkpt lat="45.50198" lon="6.06038">
        <ele>289.6109929</ele>
        <time>2020-09-11T07:48:26Z</time>
      </trkpt>
      <trkpt lat="45.50201" lon="6.06052">
        <ele>289.0865556</ele>
        <time>2020-09-11T07:48:33Z</time>
      </trkpt>
      <trkpt lat="45.50206" lon="6.06064">
        <ele>287.5122554</ele>
        <time>2020-09-11T07:48:42Z</time>
      </trkpt>
      <trkpt lat="45.50215" lon="6.06068">
        <ele>285.6460415</ele>
        <time>2020-09-11T07:48:56Z</time>
      </trkpt>
      <trkpt lat="45.50223" lon="6.06062">
        <ele>285.1849388</ele>
        <time>2020-09-11T07:49:02Z</time>
      </trkpt>
      <trkpt lat="45.50232" lon="6.06058">
        <ele>285.1215195</ele>
        <time>2020-09-11T07:49:10Z</time>
      </trkpt>
      <trkpt lat="45.5025" lon="6.06053">
        <ele>286.3124747</ele>
        <time>2020-09-11T07:49:19Z</time>
      </trkpt>
      <trkpt lat="45.50256" lon="6.06063">
        <ele>280.6609135</ele>
        <time>2020-09-11T07:50:20Z</time>
      </trkpt>
      <trkpt lat="45.50265" lon="6.06068">
        <ele>278.6154087</ele>
        <time>2020-09-11T07:50:49Z</time>
      </trkpt>
      <trkpt lat="45.50262" lon="6.06082">
        <ele>277.889125</ele>
        <time>2020-09-11T07:51:01Z</time>
      </trkpt>
      <trkpt lat="45.5026" lon="6.06095">
        <ele>278.6835943</ele>
        <time>2020-09-11T07:51:09Z</time>
      </trkpt>
      <trkpt lat="45.50257" lon="6.06109">
        <ele>279.6537762</ele>
        <time>2020-09-11T07:51:20Z</time>
      </trkpt>
      <trkpt lat="45.5026" lon="6.06123">
        <ele>279.195706</ele>
        <time>2020-09-11T07:51:31Z</time>
      </trkpt>
      <trkpt lat="45.50261" lon="6.06136">
        <ele>279.6550681</ele>
        <time>2020-09-11T07:51:40Z</time>
      </trkpt>
      <trkpt lat="45.50267" lon="6.06147">
        <ele>279.6064383</ele>
        <time>2020-09-11T07:51:50Z</time>
      </trkpt>
      <trkpt lat="45.50272" lon="6.06159">
        <ele>278.6735006</ele>
        <time>2020-09-11T07:51:58Z</time>
      </trkpt>
      <trkpt lat="45.5028" lon="6.06167">
        <ele>277.8094548</ele>
        <time>2020-09-11T07:52:08Z</time>
      </trkpt>
      <trkpt lat="45.50289" lon="6.06173">
        <ele>276.3769617</ele>
        <time>2020-09-11T07:52:20Z</time>
      </trkpt>
      <trkpt lat="45.50298" lon="6.06178">
        <ele>274.8839708</ele>
        <time>2020-09-11T07:52:28Z</time>
      </trkpt>
      <trkpt lat="45.50306" lon="6.06187">
        <ele>274.5755324</ele>
        <time>2020-09-11T07:52:36Z</time>
      </trkpt>
      <trkpt lat="45.50316" lon="6.06194">
        <ele>275.7269677</ele>
        <time>2020-09-11T07:52:41Z</time>
      </trkpt>
      <trkpt lat="45.50324" lon="6.06202">
        <ele>275.0409728</ele>
        <time>2020-09-11T07:52:48Z</time>
      </trkpt>
      <trkpt lat="45.50327" lon="6.06215">
        <ele>275.4812828</ele>
        <time>2020-09-11T07:52:58Z</time>
      </trkpt>
      <trkpt lat="45.50329" lon="6.06228">
        <ele>275.2940354</ele>
        <time>2020-09-11T07:53:06Z</time>
      </trkpt>
      <trkpt lat="45.50333" lon="6.0624">
        <ele>275.1019126</ele>
        <time>2020-09-11T07:53:14Z</time>
      </trkpt>
      <trkpt lat="45.50336" lon="6.06253">
        <ele>274.9551946</ele>
        <time>2020-09-11T07:53:23Z</time>
      </trkpt>
      <trkpt lat="45.50346" lon="6.06256">
        <ele>274.3950601</ele>
        <time>2020-09-11T07:53:34Z</time>
      </trkpt>
      <trkpt lat="45.50355" lon="6.06255">
        <ele>274.1621354</ele>
        <time>2020-09-11T07:53:44Z</time>
      </trkpt>
      <trkpt lat="45.50364" lon="6.06258">
        <ele>274.28995</ele>
        <time>2020-09-11T07:53:51Z</time>
      </trkpt>
      <trkpt lat="45.50374" lon="6.06258">
        <ele>274.3370665</ele>
        <time>2020-09-11T07:53:59Z</time>
      </trkpt>
      <trkpt lat="45.50384" lon="6.06257">
        <ele>274.6839349</ele>
        <time>2020-09-11T07:54:08Z</time>
      </trkpt>
      <trkpt lat="45.50392" lon="6.06251">
        <ele>274.661716</ele>
        <time>2020-09-11T07:54:17Z</time>
      </trkpt>
      <trkpt lat="45.50399" lon="6.06243">
        <ele>273.5936166</ele>
        <time>2020-09-11T07:54:27Z</time>
      </trkpt>
      <trkpt lat="45.50405" lon="6.06232">
        <ele>274.0307173</ele>
        <time>2020-09-11T07:54:36Z</time>
      </trkpt>
      <trkpt lat="45.50404" lon="6.06219">
        <ele>273.4515963</ele>
        <time>2020-09-11T07:54:42Z</time>
      </trkpt>
      <trkpt lat="45.50411" lon="6.06207">
        <ele>272.0651454</ele>
        <time>2020-09-11T07:54:48Z</time>
      </trkpt>
      <trkpt lat="45.5042" lon="6.06207">
        <ele>272.1251621</ele>
        <time>2020-09-11T07:54:56Z</time>
      </trkpt>
      <trkpt lat="45.50429" lon="6.06212">
        <ele>272.4450813</ele>
        <time>2020-09-11T07:55:02Z</time>
      </trkpt>
      <trkpt lat="45.50436" lon="6.06221">
        <ele>273.079558</ele>
        <time>2020-09-11T07:55:09Z</time>
      </trkpt>
      <trkpt lat="45.50443" lon="6.06232">
        <ele>273.5352397</ele>
        <time>2020-09-11T07:55:17Z</time>
      </trkpt>
      <trkpt lat="45.50451" lon="6.06237">
        <ele>273.2988998</ele>
        <time>2020-09-11T07:55:26Z</time>
      </trkpt>
      <trkpt lat="45.5046" lon="6.06237">
        <ele>273.4083599</ele>
        <time>2020-09-11T07:55:33Z</time>
      </trkpt>
      <trkpt lat="45.5047" lon="6.06238">
        <ele>273.3779878</ele>
        <time>2020-09-11T07:55:43Z</time>
      </trkpt>
      <trkpt lat="45.50479" lon="6.06237">
        <ele>273.622807</ele>
        <time>2020-09-11T07:55:50Z</time>
      </trkpt>
      <trkpt lat="45.50488" lon="6.0624">
        <ele>273.9861324</ele>
        <time>2020-09-11T07:55:59Z</time>
      </trkpt>
      <trkpt lat="45.50497" lon="6.06237">
        <ele>274.0055809</ele>
        <time>2020-09-11T07:56:09Z</time>
      </trkpt>
      <trkpt lat="45.50506" lon="6.06237">
        <ele>273.7096774</ele>
        <time>2020-09-11T07:56:17Z</time>
      </trkpt>
      <trkpt lat="45.50517" lon="6.0624">
        <ele>272.9530239</ele>
        <time>2020-09-11T07:56:24Z</time>
      </trkpt>
      <trkpt lat="45.50528" lon="6.06242">
        <ele>273.6589129</ele>
        <time>2020-09-11T07:56:34Z</time>
      </trkpt>
      <trkpt lat="45.50537" lon="6.06242">
        <ele>274.082091</ele>
        <time>2020-09-11T07:56:42Z</time>
      </trkpt>
      <trkpt lat="45.50547" lon="6.06241">
        <ele>274.7682641</ele>
        <time>2020-09-11T07:56:50Z</time>
      </trkpt>
      <trkpt lat="45.50557" lon="6.0624">
        <ele>275.5253029</ele>
        <time>2020-09-11T07:56:56Z</time>
      </trkpt>
      <trkpt lat="45.50566" lon="6.06239">
        <ele>276.451826</ele>
        <time>2020-09-11T07:57:02Z</time>
      </trkpt>
      <trkpt lat="45.50575" lon="6.0624">
        <ele>277.384609</ele>
        <time>2020-09-11T07:57:08Z</time>
      </trkpt>
      <trkpt lat="45.50585" lon="6.06241">
        <ele>277.6432201</ele>
        <time>2020-09-11T07:57:14Z</time>
      </trkpt>
      <trkpt lat="45.50595" lon="6.06242">
        <ele>278.5044173</ele>
        <time>2020-09-11T07:57:20Z</time>
      </trkpt>
      <trkpt lat="45.50605" lon="6.06242">
        <ele>279.2630436</ele>
        <time>2020-09-11T07:57:28Z</time>
      </trkpt>
      <trkpt lat="45.50613" lon="6.06245">
        <ele>280.2768432</ele>
        <time>2020-09-11T07:57:38Z</time>
      </trkpt>
      <trkpt lat="45.50621" lon="6.06253">
        <ele>277.8430736</ele>
        <time>2020-09-11T07:57:46Z</time>
      </trkpt>
      <trkpt lat="45.5063" lon="6.0626">
        <ele>276.643009</ele>
        <time>2020-09-11T07:57:54Z</time>
      </trkpt>
      <trkpt lat="45.50637" lon="6.06269">
        <ele>276.0369192</ele>
        <time>2020-09-11T07:58:01Z</time>
      </trkpt>
      <trkpt lat="45.50646" lon="6.06275">
        <ele>275.398469</ele>
        <time>2020-09-11T07:58:09Z</time>
      </trkpt>
      <trkpt lat="45.50654" lon="6.06284">
        <ele>275.1589934</ele>
        <time>2020-09-11T07:58:19Z</time>
      </trkpt>
      <trkpt lat="45.50664" lon="6.06283">
        <ele>275.6587192</ele>
        <time>2020-09-11T07:58:29Z</time>
      </trkpt>
      <trkpt lat="45.50673" lon="6.06284">
        <ele>276.1394399</ele>
        <time>2020-09-11T07:58:37Z</time>
      </trkpt>
      <trkpt lat="45.50683" lon="6.06289">
        <ele>277.2756594</ele>
        <time>2020-09-11T07:58:45Z</time>
      </trkpt>
      <trkpt lat="45.50692" lon="6.06294">
        <ele>277.8072713</ele>
        <time>2020-09-11T07:58:51Z</time>
      </trkpt>
      <trkpt lat="45.50701" lon="6.06297">
        <ele>279.4582037</ele>
        <time>2020-09-11T07:59:00Z</time>
      </trkpt>
      <trkpt lat="45.50711" lon="6.06298">
        <ele>281.136317</ele>
        <time>2020-09-11T07:59:07Z</time>
      </trkpt>
      <trkpt lat="45.5072" lon="6.06301">
        <ele>284.1617449</ele>
        <time>2020-09-11T07:59:17Z</time>
      </trkpt>
      <trkpt lat="45.50727" lon="6.06312">
        <ele>285.5647579</ele>
        <time>2020-09-11T07:59:26Z</time>
      </trkpt>
      <trkpt lat="45.50733" lon="6.06321">
        <ele>285.3934634</ele>
        <time>2020-09-11T07:59:36Z</time>
      </trkpt>
      <trkpt lat="45.50742" lon="6.06321">
        <ele>286.2068424</ele>
        <time>2020-09-11T07:59:47Z</time>
      </trkpt>
      <trkpt lat="45.50749" lon="6.06314">
        <ele>287.3701755</ele>
        <time>2020-09-11T08:00:03Z</time>
      </trkpt>
      <trkpt lat="45.50759" lon="6.06313">
        <ele>288.2313182</ele>
        <time>2020-09-11T08:00:19Z</time>
      </trkpt>
      <trkpt lat="45.50769" lon="6.06308">
        <ele>289.4032545</ele>
        <time>2020-09-11T08:00:27Z</time>
      </trkpt>
      <trkpt lat="45.50779" lon="6.06303">
        <ele>290.8273908</ele>
        <time>2020-09-11T08:00:37Z</time>
      </trkpt>
      <trkpt lat="45.50787" lon="6.06296">
        <ele>291.3031995</ele>
        <time>2020-09-11T08:01:03Z</time>
      </trkpt>
      <trkpt lat="45.50787" lon="6.0631">
        <ele>293.4812105</ele>
        <time>2020-09-11T08:01:15Z</time>
      </trkpt>
      <trkpt lat="45.50791" lon="6.06322">
        <ele>292.9972115</ele>
        <time>2020-09-11T08:01:23Z</time>
      </trkpt>
      <trkpt lat="45.5079" lon="6.06336">
        <ele>292.9662403</ele>
        <time>2020-09-11T08:01:34Z</time>
      </trkpt>
      <trkpt lat="45.50787" lon="6.06349">
        <ele>292.7534141</ele>
        <time>2020-09-11T08:01:42Z</time>
      </trkpt>
      <trkpt lat="45.50794" lon="6.06361">
        <ele>293.7888103</ele>
        <time>2020-09-11T08:01:55Z</time>
      </trkpt>
      <trkpt lat="45.50797" lon="6.06374">
        <ele>293.7600195</ele>
        <time>2020-09-11T08:02:03Z</time>
      </trkpt>
      <trkpt lat="45.50799" lon="6.06388">
        <ele>294.2555371</ele>
        <time>2020-09-11T08:02:11Z</time>
      </trkpt>
      <trkpt lat="45.50801" lon="6.06402">
        <ele>294.509493</ele>
        <time>2020-09-11T08:02:19Z</time>
      </trkpt>
      <trkpt lat="45.50802" lon="6.06415">
        <ele>294.9101897</ele>
        <time>2020-09-11T08:02:27Z</time>
      </trkpt>
      <trkpt lat="45.50805" lon="6.06429">
        <ele>294.6471656</ele>
        <time>2020-09-11T08:02:35Z</time>
      </trkpt>
      <trkpt lat="45.50814" lon="6.06437">
        <ele>295.7651344</ele>
        <time>2020-09-11T08:02:43Z</time>
      </trkpt>
      <trkpt lat="45.50822" lon="6.06441">
        <ele>297.3835221</ele>
        <time>2020-09-11T08:02:52Z</time>
      </trkpt>
      <trkpt lat="45.50831" lon="6.06446">
        <ele>296.7514428</ele>
        <time>2020-09-11T08:03:01Z</time>
      </trkpt>
      <trkpt lat="45.50841" lon="6.0645">
        <ele>298.4069255</ele>
        <time>2020-09-11T08:03:13Z</time>
      </trkpt>
      <trkpt lat="45.50849" lon="6.06459">
        <ele>298.9579834</ele>
        <time>2020-09-11T08:03:21Z</time>
      </trkpt>
      <trkpt lat="45.50857" lon="6.06467">
        <ele>297.9081774</ele>
        <time>2020-09-11T08:03:29Z</time>
      </trkpt>
      <trkpt lat="45.50862" lon="6.06479">
        <ele>299.6151542</ele>
        <time>2020-09-11T08:03:38Z</time>
      </trkpt>
      <trkpt lat="45.50869" lon="6.06489">
        <ele>301.9098749</ele>
        <time>2020-09-11T08:03:45Z</time>
      </trkpt>
      <trkpt lat="45.50874" lon="6.06499">
        <ele>301.9561036</ele>
        <time>2020-09-11T08:03:54Z</time>
      </trkpt>
      <trkpt lat="45.50881" lon="6.06508">
        <ele>302.9256971</ele>
        <time>2020-09-11T08:04:01Z</time>
      </trkpt>
      <trkpt lat="45.50887" lon="6.06518">
        <ele>303.1421004</ele>
        <time>2020-09-11T08:04:10Z</time>
      </trkpt>
      <trkpt lat="45.50896" lon="6.06525">
        <ele>303.4045996</ele>
        <time>2020-09-11T08:04:17Z</time>
      </trkpt>
      <trkpt lat="45.50901" lon="6.06536">
        <ele>302.4390614</ele>
        <time>2020-09-11T08:04:25Z</time>
      </trkpt>
      <trkpt lat="45.50907" lon="6.06526">
        <ele>303.1494102</ele>
        <time>2020-09-11T08:04:36Z</time>
      </trkpt>
      <trkpt lat="45.50916" lon="6.06521">
        <ele>305.8078326</ele>
        <time>2020-09-11T08:04:45Z</time>
      </trkpt>
      <trkpt lat="45.50925" lon="6.06517">
        <ele>308.1656354</ele>
        <time>2020-09-11T08:04:54Z</time>
      </trkpt>
      <trkpt lat="45.50935" lon="6.06512">
        <ele>308.7086649</ele>
        <time>2020-09-11T08:05:02Z</time>
      </trkpt>
      <trkpt lat="45.50938" lon="6.06499">
        <ele>310.8587494</ele>
        <time>2020-09-11T08:05:18Z</time>
      </trkpt>
      <trkpt lat="45.50939" lon="6.06485">
        <ele>311.9197613</ele>
        <time>2020-09-11T08:05:28Z</time>
      </trkpt>
      <trkpt lat="45.50958" lon="6.06475">
        <ele>312.2750934</ele>
        <time>2020-09-11T08:07:36Z</time>
      </trkpt>
      <trkpt lat="45.50967" lon="6.06471">
        <ele>314.3435805</ele>
        <time>2020-09-11T08:07:48Z</time>
      </trkpt>
      <trkpt lat="45.50976" lon="6.06477">
        <ele>318.0063366</ele>
        <time>2020-09-11T08:08:05Z</time>
      </trkpt>
      <trkpt lat="45.50982" lon="6.06486">
        <ele>319.442981</ele>
        <time>2020-09-11T08:08:15Z</time>
      </trkpt>
      <trkpt lat="45.50985" lon="6.06499">
        <ele>319.8921571</ele>
        <time>2020-09-11T08:08:25Z</time>
      </trkpt>
      <trkpt lat="45.50987" lon="6.06512">
        <ele>319.9851284</ele>
        <time>2020-09-11T08:08:36Z</time>
      </trkpt>
      <trkpt lat="45.50989" lon="6.06526">
        <ele>318.9289366</ele>
        <time>2020-09-11T08:08:48Z</time>
      </trkpt>
      <trkpt lat="45.50993" lon="6.06539">
        <ele>318.1263943</ele>
        <time>2020-09-11T08:09:09Z</time>
      </trkpt>
      <trkpt lat="45.50998" lon="6.06551">
        <ele>317.2100729</ele>
        <time>2020-09-11T08:09:19Z</time>
      </trkpt>
      <trkpt lat="45.51001" lon="6.06564">
        <ele>317.5977256</ele>
        <time>2020-09-11T08:09:28Z</time>
      </trkpt>
      <trkpt lat="45.51004" lon="6.06576">
        <ele>317.0463888</ele>
        <time>2020-09-11T08:09:36Z</time>
      </trkpt>
      <trkpt lat="45.51008" lon="6.06588">
        <ele>317.8987675</ele>
        <time>2020-09-11T08:09:44Z</time>
      </trkpt>
      <trkpt lat="45.51013" lon="6.066">
        <ele>317.0073384</ele>
        <time>2020-09-11T08:09:55Z</time>
      </trkpt>
      <trkpt lat="45.51018" lon="6.06612">
        <ele>316.6972493</ele>
        <time>2020-09-11T08:10:06Z</time>
      </trkpt>
      <trkpt lat="45.51027" lon="6.06612">
        <ele>318.4692316</ele>
        <time>2020-09-11T08:10:17Z</time>
      </trkpt>
      <trkpt lat="45.51037" lon="6.06609">
        <ele>318.5862796</ele>
        <time>2020-09-11T08:10:26Z</time>
      </trkpt>
      <trkpt lat="45.51047" lon="6.06611">
        <ele>319.3913688</ele>
        <time>2020-09-11T08:10:33Z</time>
      </trkpt>
      <trkpt lat="45.51057" lon="6.0661">
        <ele>320.9158505</ele>
        <time>2020-09-11T08:10:40Z</time>
      </trkpt>
      <trkpt lat="45.51067" lon="6.06611">
        <ele>321.6423273</ele>
        <time>2020-09-11T08:10:47Z</time>
      </trkpt>
      <trkpt lat="45.51076" lon="6.06615">
        <ele>323.846298</ele>
        <time>2020-09-11T08:10:55Z</time>
      </trkpt>
      <trkpt lat="45.51086" lon="6.06617">
        <ele>325.489165</ele>
        <time>2020-09-11T08:11:03Z</time>
      </trkpt>
      <trkpt lat="45.51094" lon="6.06624">
        <ele>328.7651035</ele>
        <time>2020-09-11T08:11:22Z</time>
      </trkpt>
      <trkpt lat="45.51104" lon="6.06627">
        <ele>330.4387987</ele>
        <time>2020-09-11T08:11:36Z</time>
      </trkpt>
      <trkpt lat="45.51113" lon="6.0663">
        <ele>331.0226874</ele>
        <time>2020-09-11T08:11:48Z</time>
      </trkpt>
      <trkpt lat="45.51122" lon="6.06634">
        <ele>332.0305935</ele>
        <time>2020-09-11T08:11:57Z</time>
      </trkpt>
      <trkpt lat="45.51131" lon="6.06639">
        <ele>333.5679103</ele>
        <time>2020-09-11T08:12:07Z</time>
      </trkpt>
      <trkpt lat="45.51139" lon="6.06646">
        <ele>334.0800459</ele>
        <time>2020-09-11T08:12:15Z</time>
      </trkpt>
      <trkpt lat="45.51147" lon="6.06656">
        <ele>335.272181</ele>
        <time>2020-09-11T08:12:25Z</time>
      </trkpt>
      <trkpt lat="45.51154" lon="6.06664">
        <ele>334.9664059</ele>
        <time>2020-09-11T08:12:35Z</time>
      </trkpt>
      <trkpt lat="45.51162" lon="6.0667">
        <ele>334.9439599</ele>
        <time>2020-09-11T08:12:44Z</time>
      </trkpt>
      <trkpt lat="45.51171" lon="6.06676">
        <ele>334.9043622</ele>
        <time>2020-09-11T08:12:53Z</time>
      </trkpt>
      <trkpt lat="45.51181" lon="6.06678">
        <ele>335.3709648</ele>
        <time>2020-09-11T08:13:03Z</time>
      </trkpt>
      <trkpt lat="45.51191" lon="6.06677">
        <ele>335.4570893</ele>
        <time>2020-09-11T08:13:12Z</time>
      </trkpt>
      <trkpt lat="45.512" lon="6.06674">
        <ele>336.4467162</ele>
        <time>2020-09-11T08:13:23Z</time>
      </trkpt>
      <trkpt lat="45.5121" lon="6.06673">
        <ele>337.1869927</ele>
        <time>2020-09-11T08:13:32Z</time>
      </trkpt>
      <trkpt lat="45.51219" lon="6.06677">
        <ele>338.4957574</ele>
        <time>2020-09-11T08:13:43Z</time>
      </trkpt>
      <trkpt lat="45.51228" lon="6.06683">
        <ele>339.4605808</ele>
        <time>2020-09-11T08:13:49Z</time>
      </trkpt>
      <trkpt lat="45.51234" lon="6.06693">
        <ele>341.2264829</ele>
        <time>2020-09-11T08:13:58Z</time>
      </trkpt>
      <trkpt lat="45.51235" lon="6.06707">
        <ele>342.1807744</ele>
        <time>2020-09-11T08:14:06Z</time>
      </trkpt>
      <trkpt lat="45.51239" lon="6.06719">
        <ele>342.883596</ele>
        <time>2020-09-11T08:14:15Z</time>
      </trkpt>
      <trkpt lat="45.51243" lon="6.06731">
        <ele>344.7938797</ele>
        <time>2020-09-11T08:14:26Z</time>
      </trkpt>
      <trkpt lat="45.51247" lon="6.06743">
        <ele>345.9666425</ele>
        <time>2020-09-11T08:14:35Z</time>
      </trkpt>
      <trkpt lat="45.5125" lon="6.06757">
        <ele>347.8511647</ele>
        <time>2020-09-11T08:14:47Z</time>
      </trkpt>
      <trkpt lat="45.51257" lon="6.06766">
        <ele>348.4877657</ele>
        <time>2020-09-11T08:14:56Z</time>
      </trkpt>
      <trkpt lat="45.51263" lon="6.06778">
        <ele>350.553709</ele>
        <time>2020-09-11T08:15:08Z</time>
      </trkpt>
      <trkpt lat="45.51268" lon="6.0679">
        <ele>352.4711124</ele>
        <time>2020-09-11T08:15:17Z</time>
      </trkpt>
      <trkpt lat="45.51273" lon="6.06802">
        <ele>353.9048348</ele>
        <time>2020-09-11T08:15:28Z</time>
      </trkpt>
      <trkpt lat="45.5128" lon="6.06811">
        <ele>355.8746572</ele>
        <time>2020-09-11T08:15:40Z</time>
      </trkpt>
      <trkpt lat="45.51287" lon="6.06819">
        <ele>356.8535977</ele>
        <time>2020-09-11T08:15:56Z</time>
      </trkpt>
      <trkpt lat="45.51294" lon="6.06829">
        <ele>357.6622434</ele>
        <time>2020-09-11T08:16:07Z</time>
      </trkpt>
      <trkpt lat="45.51301" lon="6.06838">
        <ele>359.8047725</ele>
        <time>2020-09-11T08:16:18Z</time>
      </trkpt>
      <trkpt lat="45.51308" lon="6.06848">
        <ele>361.1880517</ele>
        <time>2020-09-11T08:16:31Z</time>
      </trkpt>
      <trkpt lat="45.51316" lon="6.06857">
        <ele>362.3282402</ele>
        <time>2020-09-11T08:16:45Z</time>
      </trkpt>
      <trkpt lat="45.51322" lon="6.06867">
        <ele>363.5306553</ele>
        <time>2020-09-11T08:17:13Z</time>
      </trkpt>
      <trkpt lat="45.51329" lon="6.06877">
        <ele>365.8282981</ele>
        <time>2020-09-11T08:17:28Z</time>
      </trkpt>
      <trkpt lat="45.51334" lon="6.06888">
        <ele>365.8499238</ele>
        <time>2020-09-11T08:17:40Z</time>
      </trkpt>
      <trkpt lat="45.51337" lon="6.069">
        <ele>365.3788958</ele>
        <time>2020-09-11T08:17:50Z</time>
      </trkpt>
      <trkpt lat="45.5134" lon="6.06913">
        <ele>364.9261101</ele>
        <time>2020-09-11T08:17:59Z</time>
      </trkpt>
      <trkpt lat="45.51343" lon="6.06926">
        <ele>364.6960357</ele>
        <time>2020-09-11T08:18:17Z</time>
      </trkpt>
      <trkpt lat="45.51347" lon="6.06939">
        <ele>364.674965</ele>
        <time>2020-09-11T08:18:25Z</time>
      </trkpt>
      <trkpt lat="45.51349" lon="6.06952">
        <ele>365.0590556</ele>
        <time>2020-09-11T08:18:32Z</time>
      </trkpt>
      <trkpt lat="45.51352" lon="6.06965">
        <ele>365.3906257</ele>
        <time>2020-09-11T08:18:41Z</time>
      </trkpt>
      <trkpt lat="45.51355" lon="6.06978">
        <ele>365.476146</ele>
        <time>2020-09-11T08:18:48Z</time>
      </trkpt>
      <trkpt lat="45.51358" lon="6.06991">
        <ele>366.3509192</ele>
        <time>2020-09-11T08:18:56Z</time>
      </trkpt>
      <trkpt lat="45.51362" lon="6.07004">
        <ele>366.2684193</ele>
        <time>2020-09-11T08:19:03Z</time>
      </trkpt>
      <trkpt lat="45.51366" lon="6.07018">
        <ele>366.466241</ele>
        <time>2020-09-11T08:19:15Z</time>
      </trkpt>
      <trkpt lat="45.5137" lon="6.0703">
        <ele>366.911377</ele>
        <time>2020-09-11T08:19:24Z</time>
      </trkpt>
      <trkpt lat="45.51373" lon="6.07042">
        <ele>367.6999331</ele>
        <time>2020-09-11T08:19:33Z</time>
      </trkpt>
      <trkpt lat="45.51376" lon="6.07056">
        <ele>369.0249014</ele>
        <time>2020-09-11T08:19:42Z</time>
      </trkpt>
      <trkpt lat="45.51378" lon="6.07069">
        <ele>370.4656389</ele>
        <time>2020-09-11T08:19:51Z</time>
      </trkpt>
      <trkpt lat="45.51382" lon="6.07081">
        <ele>372.2199235</ele>
        <time>2020-09-11T08:20:01Z</time>
      </trkpt>
      <trkpt lat="45.51385" lon="6.07094">
        <ele>373.185647</ele>
        <time>2020-09-11T08:20:11Z</time>
      </trkpt>
      <trkpt lat="45.51388" lon="6.07108">
        <ele>373.4242477</ele>
        <time>2020-09-11T08:20:21Z</time>
      </trkpt>
      <trkpt lat="45.51392" lon="6.0712">
        <ele>374.1954804</ele>
        <time>2020-09-11T08:20:40Z</time>
      </trkpt>
      <trkpt lat="45.51393" lon="6.07133">
        <ele>376.8945558</ele>
        <time>2020-09-11T08:20:50Z</time>
      </trkpt>
      <trkpt lat="45.51385" lon="6.07139">
        <ele>377.0800978</ele>
        <time>2020-09-11T08:21:02Z</time>
      </trkpt>
      <trkpt lat="45.51376" lon="6.07136">
        <ele>374.1934036</ele>
        <time>2020-09-11T08:21:16Z</time>
      </trkpt>
      <trkpt lat="45.51367" lon="6.07133">
        <ele>372.4600669</ele>
        <time>2020-09-11T08:21:26Z</time>
      </trkpt>
      <trkpt lat="45.51358" lon="6.07127">
        <ele>369.1392474</ele>
        <time>2020-09-11T08:21:39Z</time>
      </trkpt>
      <trkpt lat="45.51349" lon="6.07124">
        <ele>366.6634617</ele>
        <time>2020-09-11T08:21:50Z</time>
      </trkpt>
      <trkpt lat="45.51342" lon="6.07115">
        <ele>363.3555194</ele>
        <time>2020-09-11T08:22:33Z</time>
      </trkpt>
      <trkpt lat="45.51333" lon="6.07114">
        <ele>362.3532866</ele>
        <time>2020-09-11T08:22:57Z</time>
      </trkpt>
      <trkpt lat="45.51324" lon="6.07119">
        <ele>362.6986585</ele>
        <time>2020-09-11T08:23:11Z</time>
      </trkpt>
      <trkpt lat="45.51316" lon="6.07125">
        <ele>359.5730764</ele>
        <time>2020-09-11T08:23:39Z</time>
      </trkpt>
      <trkpt lat="45.5131" lon="6.07116">
        <ele>355.4260583</ele>
        <time>2020-09-11T08:24:32Z</time>
      </trkpt>
      <trkpt lat="45.51316" lon="6.07125">
        <ele>356.224332</ele>
        <time>2020-09-11T08:26:25Z</time>
      </trkpt>
      <trkpt lat="45.51325" lon="6.07119">
        <ele>357.3205612</ele>
        <time>2020-09-11T08:26:50Z</time>
      </trkpt>
      <trkpt lat="45.51334" lon="6.07115">
        <ele>358.1908879</ele>
        <time>2020-09-11T08:27:04Z</time>
      </trkpt>
      <trkpt lat="45.51343" lon="6.07119">
        <ele>362.4753217</ele>
        <time>2020-09-11T08:27:22Z</time>
      </trkpt>
      <trkpt lat="45.51351" lon="6.07125">
        <ele>365.1844542</ele>
        <time>2020-09-11T08:27:37Z</time>
      </trkpt>
      <trkpt lat="45.5136" lon="6.07131">
        <ele>367.2567586</ele>
        <time>2020-09-11T08:27:50Z</time>
      </trkpt>
      <trkpt lat="45.51368" lon="6.07138">
        <ele>369.1545228</ele>
        <time>2020-09-11T08:28:00Z</time>
      </trkpt>
      <trkpt lat="45.51378" lon="6.07141">
        <ele>372.1581785</ele>
        <time>2020-09-11T08:28:14Z</time>
      </trkpt>
      <trkpt lat="45.51387" lon="6.07141">
        <ele>374.7015895</ele>
        <time>2020-09-11T08:28:25Z</time>
      </trkpt>
      <trkpt lat="45.51392" lon="6.07128">
        <ele>376.4471891</ele>
        <time>2020-09-11T08:28:39Z</time>
      </trkpt>
      <trkpt lat="45.51391" lon="6.07115">
        <ele>375.2424883</ele>
        <time>2020-09-11T08:28:50Z</time>
      </trkpt>
      <trkpt lat="45.51387" lon="6.07102">
        <ele>373.5668982</ele>
        <time>2020-09-11T08:28:59Z</time>
      </trkpt>
      <trkpt lat="45.51383" lon="6.0709">
        <ele>372.3632718</ele>
        <time>2020-09-11T08:29:08Z</time>
      </trkpt>
      <trkpt lat="45.51379" lon="6.07077">
        <ele>370.2484926</ele>
        <time>2020-09-11T08:29:20Z</time>
      </trkpt>
      <trkpt lat="45.51376" lon="6.07063">
        <ele>369.7709748</ele>
        <time>2020-09-11T08:29:29Z</time>
      </trkpt>
      <trkpt lat="45.51371" lon="6.07051">
        <ele>368.5404447</ele>
        <time>2020-09-11T08:29:37Z</time>
      </trkpt>
      <trkpt lat="45.51368" lon="6.07038">
        <ele>367.383732</ele>
        <time>2020-09-11T08:29:45Z</time>
      </trkpt>
      <trkpt lat="45.51366" lon="6.07024">
        <ele>366.1314308</ele>
        <time>2020-09-11T08:29:52Z</time>
      </trkpt>
      <trkpt lat="45.51362" lon="6.07012">
        <ele>365.2642048</ele>
        <time>2020-09-11T08:29:58Z</time>
      </trkpt>
      <trkpt lat="45.51356" lon="6.07">
        <ele>365.710198</ele>
        <time>2020-09-11T08:30:05Z</time>
      </trkpt>
      <trkpt lat="45.51354" lon="6.06987">
        <ele>366.1393605</ele>
        <time>2020-09-11T08:30:12Z</time>
      </trkpt>
      <trkpt lat="45.51351" lon="6.06974">
        <ele>364.3373689</ele>
        <time>2020-09-11T08:30:20Z</time>
      </trkpt>
      <trkpt lat="45.51349" lon="6.06959">
        <ele>364.8096567</ele>
        <time>2020-09-11T08:30:27Z</time>
      </trkpt>
      <trkpt lat="45.51346" lon="6.06946">
        <ele>364.0296646</ele>
        <time>2020-09-11T08:30:33Z</time>
      </trkpt>
      <trkpt lat="45.51343" lon="6.06934">
        <ele>363.2270627</ele>
        <time>2020-09-11T08:30:39Z</time>
      </trkpt>
      <trkpt lat="45.51338" lon="6.06923">
        <ele>364.5207154</ele>
        <time>2020-09-11T08:30:45Z</time>
      </trkpt>
      <trkpt lat="45.51335" lon="6.06909">
        <ele>364.869111</ele>
        <time>2020-09-11T08:30:52Z</time>
      </trkpt>
      <trkpt lat="45.5133" lon="6.06898">
        <ele>365.1417225</ele>
        <time>2020-09-11T08:30:58Z</time>
      </trkpt>
      <trkpt lat="45.51327" lon="6.06886">
        <ele>366.0332318</ele>
        <time>2020-09-11T08:31:05Z</time>
      </trkpt>
      <trkpt lat="45.51328" lon="6.06873">
        <ele>367.9260652</ele>
        <time>2020-09-11T08:31:19Z</time>
      </trkpt>
      <trkpt lat="45.51336" lon="6.06867">
        <ele>368.9271416</ele>
        <time>2020-09-11T08:31:40Z</time>
      </trkpt>
      <trkpt lat="45.51333" lon="6.06854">
        <ele>367.469578</ele>
        <time>2020-09-11T08:32:28Z</time>
      </trkpt>
      <trkpt lat="45.51335" lon="6.06841">
        <ele>368.9356239</ele>
        <time>2020-09-11T08:32:40Z</time>
      </trkpt>
      <trkpt lat="45.51339" lon="6.06829">
        <ele>371.349866</ele>
        <time>2020-09-11T08:32:57Z</time>
      </trkpt>
      <trkpt lat="45.51349" lon="6.06828">
        <ele>374.1466189</ele>
        <time>2020-09-11T08:33:27Z</time>
      </trkpt>
      <trkpt lat="45.51358" lon="6.06826">
        <ele>376.7166163</ele>
        <time>2020-09-11T08:33:58Z</time>
      </trkpt>
      <trkpt lat="45.51366" lon="6.06818">
        <ele>378.6764406</ele>
        <time>2020-09-11T08:34:17Z</time>
      </trkpt>
      <trkpt lat="45.5137" lon="6.06806">
        <ele>380.9708654</ele>
        <time>2020-09-11T08:34:27Z</time>
      </trkpt>
      <trkpt lat="45.51373" lon="6.06792">
        <ele>382.2703265</ele>
        <time>2020-09-11T08:34:40Z</time>
      </trkpt>
      <trkpt lat="45.51373" lon="6.06779">
        <ele>383.9105133</ele>
        <time>2020-09-11T08:34:53Z</time>
      </trkpt>
      <trkpt lat="45.5137" lon="6.06766">
        <ele>384.7014562</ele>
        <time>2020-09-11T08:35:03Z</time>
      </trkpt>
      <trkpt lat="45.51367" lon="6.06753">
        <ele>383.9214422</ele>
        <time>2020-09-11T08:36:14Z</time>
      </trkpt>
      <trkpt lat="45.51363" lon="6.06738">
        <ele>384.5325844</ele>
        <time>2020-09-11T08:36:27Z</time>
      </trkpt>
      <trkpt lat="45.51361" lon="6.06725">
        <ele>385.0803728</ele>
        <time>2020-09-11T08:36:35Z</time>
      </trkpt>
      <trkpt lat="45.5136" lon="6.06711">
        <ele>384.5237302</ele>
        <time>2020-09-11T08:36:44Z</time>
      </trkpt>
      <trkpt lat="45.5136" lon="6.06696">
        <ele>384.8612327</ele>
        <time>2020-09-11T08:36:51Z</time>
      </trkpt>
      <trkpt lat="45.51361" lon="6.06683">
        <ele>385.095243</ele>
        <time>2020-09-11T08:37:00Z</time>
      </trkpt>
      <trkpt lat="45.51365" lon="6.06671">
        <ele>385.5502748</ele>
        <time>2020-09-11T08:37:08Z</time>
      </trkpt>
      <trkpt lat="45.51366" lon="6.06658">
        <ele>386.4534978</ele>
        <time>2020-09-11T08:37:15Z</time>
      </trkpt>
      <trkpt lat="45.51367" lon="6.06644">
        <ele>388.1877048</ele>
        <time>2020-09-11T08:37:23Z</time>
      </trkpt>
      <trkpt lat="45.5137" lon="6.06632">
        <ele>389.022563</ele>
        <time>2020-09-11T08:37:33Z</time>
      </trkpt>
      <trkpt lat="45.51372" lon="6.06619">
        <ele>389.1704793</ele>
        <time>2020-09-11T08:37:45Z</time>
      </trkpt>
      <trkpt lat="45.51373" lon="6.06605">
        <ele>390.1442361</ele>
        <time>2020-09-11T08:37:52Z</time>
      </trkpt>
      <trkpt lat="45.51372" lon="6.0659">
        <ele>391.796184</ele>
        <time>2020-09-11T08:38:01Z</time>
      </trkpt>
      <trkpt lat="45.51371" lon="6.06576">
        <ele>392.9531422</ele>
        <time>2020-09-11T08:38:10Z</time>
      </trkpt>
      <trkpt lat="45.51371" lon="6.06562">
        <ele>394.8256257</ele>
        <time>2020-09-11T08:38:19Z</time>
      </trkpt>
      <trkpt lat="45.5137" lon="6.06548">
        <ele>395.1664902</ele>
        <time>2020-09-11T08:38:28Z</time>
      </trkpt>
      <trkpt lat="45.51366" lon="6.06535">
        <ele>397.2558473</ele>
        <time>2020-09-11T08:38:37Z</time>
      </trkpt>
      <trkpt lat="45.51363" lon="6.06521">
        <ele>397.0506203</ele>
        <time>2020-09-11T08:38:47Z</time>
      </trkpt>
      <trkpt lat="45.51362" lon="6.06506">
        <ele>396.4712829</ele>
        <time>2020-09-11T08:38:56Z</time>
      </trkpt>
      <trkpt lat="45.51357" lon="6.06493">
        <ele>399.2388463</ele>
        <time>2020-09-11T08:39:06Z</time>
      </trkpt>
      <trkpt lat="45.51352" lon="6.06482">
        <ele>400.3925323</ele>
        <time>2020-09-11T08:39:15Z</time>
      </trkpt>
      <trkpt lat="45.51348" lon="6.06469">
        <ele>401.7207312</ele>
        <time>2020-09-11T08:39:24Z</time>
      </trkpt>
      <trkpt lat="45.51344" lon="6.06457">
        <ele>402.5779531</ele>
        <time>2020-09-11T08:39:32Z</time>
      </trkpt>
      <trkpt lat="45.51342" lon="6.06445">
        <ele>403.5694364</ele>
        <time>2020-09-11T08:39:40Z</time>
      </trkpt>
      <trkpt lat="45.51337" lon="6.06432">
        <ele>404.9421561</ele>
        <time>2020-09-11T08:39:52Z</time>
      </trkpt>
      <trkpt lat="45.51331" lon="6.06421">
        <ele>405.4623602</ele>
        <time>2020-09-11T08:40:03Z</time>
      </trkpt>
      <trkpt lat="45.51324" lon="6.06411">
        <ele>405.2325744</ele>
        <time>2020-09-11T08:40:11Z</time>
      </trkpt>
      <trkpt lat="45.51317" lon="6.06401">
        <ele>405.8261515</ele>
        <time>2020-09-11T08:40:20Z</time>
      </trkpt>
      <trkpt lat="45.51311" lon="6.0639">
        <ele>406.3456837</ele>
        <time>2020-09-11T08:40:28Z</time>
      </trkpt>
      <trkpt lat="45.51305" lon="6.06381">
        <ele>406.5659816</ele>
        <time>2020-09-11T08:40:37Z</time>
      </trkpt>
      <trkpt lat="45.51299" lon="6.06368">
        <ele>407.205505</ele>
        <time>2020-09-11T08:40:45Z</time>
      </trkpt>
      <trkpt lat="45.51295" lon="6.06356">
        <ele>407.2382589</ele>
        <time>2020-09-11T08:40:53Z</time>
      </trkpt>
      <trkpt lat="45.5129" lon="6.06344">
        <ele>406.9975906</ele>
        <time>2020-09-11T08:41:01Z</time>
      </trkpt>
      <trkpt lat="45.51285" lon="6.06332">
        <ele>407.3041528</ele>
        <time>2020-09-11T08:41:08Z</time>
      </trkpt>
      <trkpt lat="45.51283" lon="6.06319">
        <ele>404.9324812</ele>
        <time>2020-09-11T08:41:41Z</time>
      </trkpt>
      <trkpt lat="45.51278" lon="6.06307">
        <ele>406.3748798</ele>
        <time>2020-09-11T08:41:48Z</time>
      </trkpt>
      <trkpt lat="45.51274" lon="6.06295">
        <ele>407.1489758</ele>
        <time>2020-09-11T08:41:56Z</time>
      </trkpt>
      <trkpt lat="45.5127" lon="6.06284">
        <ele>406.3795132</ele>
        <time>2020-09-11T08:42:09Z</time>
      </trkpt>
      <trkpt lat="45.51266" lon="6.0627">
        <ele>406.183353</ele>
        <time>2020-09-11T08:42:18Z</time>
      </trkpt>
      <trkpt lat="45.51263" lon="6.06258">
        <ele>405.8136031</ele>
        <time>2020-09-11T08:42:24Z</time>
      </trkpt>
      <trkpt lat="45.51258" lon="6.06246">
        <ele>407.1501885</ele>
        <time>2020-09-11T08:42:32Z</time>
      </trkpt>
      <trkpt lat="45.51254" lon="6.06234">
        <ele>407.2671306</ele>
        <time>2020-09-11T08:42:39Z</time>
      </trkpt>
      <trkpt lat="45.51249" lon="6.06223">
        <ele>407.0565364</ele>
        <time>2020-09-11T08:42:46Z</time>
      </trkpt>
      <trkpt lat="45.51243" lon="6.06212">
        <ele>408.3749964</ele>
        <time>2020-09-11T08:42:52Z</time>
      </trkpt>
      <trkpt lat="45.51238" lon="6.062">
        <ele>407.9270423</ele>
        <time>2020-09-11T08:43:00Z</time>
      </trkpt>
      <trkpt lat="45.51234" lon="6.06188">
        <ele>407.689941</ele>
        <time>2020-09-11T08:43:08Z</time>
      </trkpt>
      <trkpt lat="45.5123" lon="6.06175">
        <ele>407.6919326</ele>
        <time>2020-09-11T08:43:15Z</time>
      </trkpt>
      <trkpt lat="45.51227" lon="6.06163">
        <ele>407.4594565</ele>
        <time>2020-09-11T08:43:22Z</time>
      </trkpt>
      <trkpt lat="45.51224" lon="6.06149">
        <ele>407.1067306</ele>
        <time>2020-09-11T08:43:30Z</time>
      </trkpt>
      <trkpt lat="45.51223" lon="6.06135">
        <ele>407.1489073</ele>
        <time>2020-09-11T08:43:39Z</time>
      </trkpt>
      <trkpt lat="45.51224" lon="6.06122">
        <ele>408.0032824</ele>
        <time>2020-09-11T08:43:46Z</time>
      </trkpt>
      <trkpt lat="45.51224" lon="6.06109">
        <ele>409.9376159</ele>
        <time>2020-09-11T08:43:55Z</time>
      </trkpt>
      <trkpt lat="45.51223" lon="6.06096">
        <ele>412.0335893</ele>
        <time>2020-09-11T08:44:05Z</time>
      </trkpt>
      <trkpt lat="45.51223" lon="6.06082">
        <ele>414.9919195</ele>
        <time>2020-09-11T08:44:15Z</time>
      </trkpt>
      <trkpt lat="45.51225" lon="6.06069">
        <ele>417.608449</ele>
        <time>2020-09-11T08:44:23Z</time>
      </trkpt>
      <trkpt lat="45.51219" lon="6.06059">
        <ele>418.9390433</ele>
        <time>2020-09-11T08:44:43Z</time>
      </trkpt>
      <trkpt lat="45.51216" lon="6.06046">
        <ele>418.9521841</ele>
        <time>2020-09-11T08:44:55Z</time>
      </trkpt>
      <trkpt lat="45.51213" lon="6.06033">
        <ele>419.3102427</ele>
        <time>2020-09-11T08:45:05Z</time>
      </trkpt>
      <trkpt lat="45.51209" lon="6.06019">
        <ele>418.6689596</ele>
        <time>2020-09-11T08:45:14Z</time>
      </trkpt>
      <trkpt lat="45.51207" lon="6.06006">
        <ele>421.4426952</ele>
        <time>2020-09-11T08:45:25Z</time>
      </trkpt>
      <trkpt lat="45.51202" lon="6.05995">
        <ele>423.360292</ele>
        <time>2020-09-11T08:45:34Z</time>
      </trkpt>
      <trkpt lat="45.51197" lon="6.05984">
        <ele>425.5560944</ele>
        <time>2020-09-11T08:45:45Z</time>
      </trkpt>
      <trkpt lat="45.51189" lon="6.05974">
        <ele>426.9293237</ele>
        <time>2020-09-11T08:45:55Z</time>
      </trkpt>
      <trkpt lat="45.51183" lon="6.05964">
        <ele>427.0918209</ele>
        <time>2020-09-11T08:46:03Z</time>
      </trkpt>
      <trkpt lat="45.51175" lon="6.05957">
        <ele>428.4709564</ele>
        <time>2020-09-11T08:46:12Z</time>
      </trkpt>
      <trkpt lat="45.51166" lon="6.05955">
        <ele>429.1195679</ele>
        <time>2020-09-11T08:46:23Z</time>
      </trkpt>
      <trkpt lat="45.51157" lon="6.05949">
        <ele>428.6495763</ele>
        <time>2020-09-11T08:46:33Z</time>
      </trkpt>
      <trkpt lat="45.51149" lon="6.05942">
        <ele>428.5307812</ele>
        <time>2020-09-11T08:46:44Z</time>
      </trkpt>
      <trkpt lat="45.51144" lon="6.05929">
        <ele>430.5531568</ele>
        <time>2020-09-11T08:46:57Z</time>
      </trkpt>
      <trkpt lat="45.51138" lon="6.05919">
        <ele>431.9239881</ele>
        <time>2020-09-11T08:47:09Z</time>
      </trkpt>
      <trkpt lat="45.51133" lon="6.05907">
        <ele>435.1184282</ele>
        <time>2020-09-11T08:47:23Z</time>
      </trkpt>
      <trkpt lat="45.51128" lon="6.05897">
        <ele>436.817381</ele>
        <time>2020-09-11T08:47:35Z</time>
      </trkpt>
      <trkpt lat="45.51125" lon="6.05883">
        <ele>438.7098616</ele>
        <time>2020-09-11T08:47:47Z</time>
      </trkpt>
      <trkpt lat="45.51119" lon="6.05872">
        <ele>439.9374565</ele>
        <time>2020-09-11T08:47:59Z</time>
      </trkpt>
      <trkpt lat="45.51113" lon="6.05862">
        <ele>441.9858167</ele>
        <time>2020-09-11T08:48:10Z</time>
      </trkpt>
      <trkpt lat="45.51106" lon="6.05854">
        <ele>441.4329409</ele>
        <time>2020-09-11T08:48:20Z</time>
      </trkpt>
      <trkpt lat="45.51099" lon="6.05845">
        <ele>442.060989</ele>
        <time>2020-09-11T08:48:30Z</time>
      </trkpt>
      <trkpt lat="45.51093" lon="6.05833">
        <ele>442.6781328</ele>
        <time>2020-09-11T08:48:38Z</time>
      </trkpt>
      <trkpt lat="45.51084" lon="6.05826">
        <ele>442.1889027</ele>
        <time>2020-09-11T08:48:47Z</time>
      </trkpt>
      <trkpt lat="45.5108" lon="6.05815">
        <ele>442.1104197</ele>
        <time>2020-09-11T08:48:55Z</time>
      </trkpt>
      <trkpt lat="45.51074" lon="6.05804">
        <ele>441.897792</ele>
        <time>2020-09-11T08:49:05Z</time>
      </trkpt>
      <trkpt lat="45.51066" lon="6.05797">
        <ele>443.0851175</ele>
        <time>2020-09-11T08:49:13Z</time>
      </trkpt>
      <trkpt lat="45.51058" lon="6.05789">
        <ele>442.7398564</ele>
        <time>2020-09-11T08:49:22Z</time>
      </trkpt>
      <trkpt lat="45.51051" lon="6.05779">
        <ele>443.0212394</ele>
        <time>2020-09-11T08:49:30Z</time>
      </trkpt>
      <trkpt lat="45.51045" lon="6.05769">
        <ele>444.1018538</ele>
        <time>2020-09-11T08:49:38Z</time>
      </trkpt>
      <trkpt lat="45.51039" lon="6.05759">
        <ele>444.293391</ele>
        <time>2020-09-11T08:49:48Z</time>
      </trkpt>
      <trkpt lat="45.51031" lon="6.05751">
        <ele>445.8950665</ele>
        <time>2020-09-11T08:49:58Z</time>
      </trkpt>
      <trkpt lat="45.51024" lon="6.05742">
        <ele>446.9061959</ele>
        <time>2020-09-11T08:50:08Z</time>
      </trkpt>
      <trkpt lat="45.51017" lon="6.05733">
        <ele>447.6907844</ele>
        <time>2020-09-11T08:50:17Z</time>
      </trkpt>
      <trkpt lat="45.5101" lon="6.05722">
        <ele>448.4683436</ele>
        <time>2020-09-11T08:50:29Z</time>
      </trkpt>
      <trkpt lat="45.51003" lon="6.05712">
        <ele>449.3529034</ele>
        <time>2020-09-11T08:50:38Z</time>
      </trkpt>
      <trkpt lat="45.50997" lon="6.05702">
        <ele>450.1655187</ele>
        <time>2020-09-11T08:50:47Z</time>
      </trkpt>
      <trkpt lat="45.5099" lon="6.05693">
        <ele>450.1612895</ele>
        <time>2020-09-11T08:50:53Z</time>
      </trkpt>
      <trkpt lat="45.50983" lon="6.05683">
        <ele>449.9957352</ele>
        <time>2020-09-11T08:51:02Z</time>
      </trkpt>
      <trkpt lat="45.50974" lon="6.05676">
        <ele>449.1668025</ele>
        <time>2020-09-11T08:51:13Z</time>
      </trkpt>
      <trkpt lat="45.50966" lon="6.05667">
        <ele>446.8609674</ele>
        <time>2020-09-11T08:51:22Z</time>
      </trkpt>
      <trkpt lat="45.50958" lon="6.05661">
        <ele>444.4458058</ele>
        <time>2020-09-11T08:51:33Z</time>
      </trkpt>
      <trkpt lat="45.50949" lon="6.05655">
        <ele>442.6592728</ele>
        <time>2020-09-11T08:51:43Z</time>
      </trkpt>
      <trkpt lat="45.50941" lon="6.05647">
        <ele>440.3659088</ele>
        <time>2020-09-11T08:51:55Z</time>
      </trkpt>
      <trkpt lat="45.50934" lon="6.05639">
        <ele>436.5249942</ele>
        <time>2020-09-11T08:52:28Z</time>
      </trkpt>
      <trkpt lat="45.50928" lon="6.05629">
        <ele>435.084886</ele>
        <time>2020-09-11T08:52:42Z</time>
      </trkpt>
      <trkpt lat="45.50923" lon="6.05617">
        <ele>432.5407172</ele>
        <time>2020-09-11T08:52:59Z</time>
      </trkpt>
      <trkpt lat="45.50919" lon="6.05605">
        <ele>431.2751421</ele>
        <time>2020-09-11T08:53:16Z</time>
      </trkpt>
      <trkpt lat="45.50914" lon="6.05593">
        <ele>430.4605134</ele>
        <time>2020-09-11T08:53:29Z</time>
      </trkpt>
      <trkpt lat="45.50908" lon="6.05583">
        <ele>428.7436865</ele>
        <time>2020-09-11T08:53:42Z</time>
      </trkpt>
      <trkpt lat="45.50902" lon="6.05573">
        <ele>426.4813999</ele>
        <time>2020-09-11T08:53:53Z</time>
      </trkpt>
      <trkpt lat="45.50895" lon="6.05563">
        <ele>425.4690016</ele>
        <time>2020-09-11T08:54:05Z</time>
      </trkpt>
      <trkpt lat="45.50889" lon="6.05553">
        <ele>423.5088469</ele>
        <time>2020-09-11T08:54:21Z</time>
      </trkpt>
      <trkpt lat="45.50883" lon="6.05543">
        <ele>421.7429111</ele>
        <time>2020-09-11T08:54:34Z</time>
      </trkpt>
      <trkpt lat="45.50876" lon="6.05532">
        <ele>421.5057193</ele>
        <time>2020-09-11T08:54:45Z</time>
      </trkpt>
      <trkpt lat="45.5087" lon="6.05521">
        <ele>418.7352856</ele>
        <time>2020-09-11T08:54:56Z</time>
      </trkpt>
      <trkpt lat="45.50865" lon="6.05511">
        <ele>418.1396074</ele>
        <time>2020-09-11T08:55:09Z</time>
      </trkpt>
      <trkpt lat="45.50857" lon="6.05504">
        <ele>416.0744396</ele>
        <time>2020-09-11T08:55:21Z</time>
      </trkpt>
      <trkpt lat="45.5085" lon="6.05495">
        <ele>412.9154317</ele>
        <time>2020-09-11T08:55:36Z</time>
      </trkpt>
      <trkpt lat="45.50843" lon="6.05485">
        <ele>410.1342304</ele>
        <time>2020-09-11T08:55:47Z</time>
      </trkpt>
      <trkpt lat="45.50838" lon="6.05474">
        <ele>408.3631501</ele>
        <time>2020-09-11T08:55:58Z</time>
      </trkpt>
      <trkpt lat="45.50832" lon="6.05464">
        <ele>406.991464</ele>
        <time>2020-09-11T08:56:08Z</time>
      </trkpt>
      <trkpt lat="45.50827" lon="6.05452">
        <ele>406.1213377</ele>
        <time>2020-09-11T08:56:19Z</time>
      </trkpt>
      <trkpt lat="45.50822" lon="6.05441">
        <ele>404.9814273</ele>
        <time>2020-09-11T08:56:28Z</time>
      </trkpt>
      <trkpt lat="45.50818" lon="6.05429">
        <ele>404.1580862</ele>
        <time>2020-09-11T08:56:37Z</time>
      </trkpt>
      <trkpt lat="45.50814" lon="6.05418">
        <ele>401.8338277</ele>
        <time>2020-09-11T08:56:46Z</time>
      </trkpt>
      <trkpt lat="45.5081" lon="6.05405">
        <ele>399.7750193</ele>
        <time>2020-09-11T08:56:57Z</time>
      </trkpt>
      <trkpt lat="45.50807" lon="6.05392">
        <ele>397.2464112</ele>
        <time>2020-09-11T08:57:07Z</time>
      </trkpt>
      <trkpt lat="45.50805" lon="6.0538">
        <ele>396.7418981</ele>
        <time>2020-09-11T08:57:16Z</time>
      </trkpt>
      <trkpt lat="45.50798" lon="6.05388">
        <ele>394.0254477</ele>
        <time>2020-09-11T08:57:36Z</time>
      </trkpt>
      <trkpt lat="45.50798" lon="6.05401">
        <ele>391.4765086</ele>
        <time>2020-09-11T08:57:46Z</time>
      </trkpt>
      <trkpt lat="45.50799" lon="6.05414">
        <ele>390.5285319</ele>
        <time>2020-09-11T08:57:55Z</time>
      </trkpt>
      <trkpt lat="45.50797" lon="6.05429">
        <ele>389.2286951</ele>
        <time>2020-09-11T08:58:04Z</time>
      </trkpt>
      <trkpt lat="45.50791" lon="6.05439">
        <ele>387.3553859</ele>
        <time>2020-09-11T08:58:15Z</time>
      </trkpt>
      <trkpt lat="45.50789" lon="6.05453">
        <ele>385.3990117</ele>
        <time>2020-09-11T08:58:25Z</time>
      </trkpt>
      <trkpt lat="45.50789" lon="6.05467">
        <ele>382.8187108</ele>
        <time>2020-09-11T08:58:35Z</time>
      </trkpt>
      <trkpt lat="45.5079" lon="6.05481">
        <ele>380.9033622</ele>
        <time>2020-09-11T08:58:46Z</time>
      </trkpt>
      <trkpt lat="45.50791" lon="6.05494">
        <ele>378.6730804</ele>
        <time>2020-09-11T08:58:55Z</time>
      </trkpt>
      <trkpt lat="45.50794" lon="6.05507">
        <ele>377.3869224</ele>
        <time>2020-09-11T08:59:04Z</time>
      </trkpt>
      <trkpt lat="45.50786" lon="6.05502">
        <ele>376.0421497</ele>
        <time>2020-09-11T08:59:19Z</time>
      </trkpt>
      <trkpt lat="45.50784" lon="6.05488">
        <ele>375.6692673</ele>
        <time>2020-09-11T08:59:31Z</time>
      </trkpt>
      <trkpt lat="45.50782" lon="6.05475">
        <ele>375.3672299</ele>
        <time>2020-09-11T08:59:40Z</time>
      </trkpt>
      <trkpt lat="45.5078" lon="6.05462">
        <ele>375.2365922</ele>
        <time>2020-09-11T08:59:50Z</time>
      </trkpt>
      <trkpt lat="45.50779" lon="6.05449">
        <ele>374.7308245</ele>
        <time>2020-09-11T08:59:57Z</time>
      </trkpt>
      <trkpt lat="45.50777" lon="6.05436">
        <ele>375.8287274</ele>
        <time>2020-09-11T09:00:05Z</time>
      </trkpt>
      <trkpt lat="45.50775" lon="6.05423">
        <ele>377.1638729</ele>
        <time>2020-09-11T09:00:13Z</time>
      </trkpt>
      <trkpt lat="45.50774" lon="6.0541">
        <ele>376.9444039</ele>
        <time>2020-09-11T09:00:21Z</time>
      </trkpt>
      <trkpt lat="45.50772" lon="6.05397">
        <ele>378.9482329</ele>
        <time>2020-09-11T09:00:30Z</time>
      </trkpt>
      <trkpt lat="45.50764" lon="6.05389">
        <ele>377.646902</ele>
        <time>2020-09-11T09:00:40Z</time>
      </trkpt>
      <trkpt lat="45.50757" lon="6.05379">
        <ele>376.9965397</ele>
        <time>2020-09-11T09:00:48Z</time>
      </trkpt>
      <trkpt lat="45.50756" lon="6.05392">
        <ele>374.8583771</ele>
        <time>2020-09-11T09:01:09Z</time>
      </trkpt>
      <trkpt lat="45.50749" lon="6.05401">
        <ele>371.6298822</ele>
        <time>2020-09-11T09:01:31Z</time>
      </trkpt>
      <trkpt lat="45.50741" lon="6.05394">
        <ele>368.3608605</ele>
        <time>2020-09-11T09:01:45Z</time>
      </trkpt>
      <trkpt lat="45.50733" lon="6.05386">
        <ele>364.4067178</ele>
        <time>2020-09-11T09:02:04Z</time>
      </trkpt>
      <trkpt lat="45.50726" lon="6.05375">
        <ele>360.9054859</ele>
        <time>2020-09-11T09:02:24Z</time>
      </trkpt>
      <trkpt lat="45.50719" lon="6.05366">
        <ele>355.9530386</ele>
        <time>2020-09-11T09:02:44Z</time>
      </trkpt>
      <trkpt lat="45.50713" lon="6.05356">
        <ele>352.2905466</ele>
        <time>2020-09-11T09:03:01Z</time>
      </trkpt>
      <trkpt lat="45.50706" lon="6.05345">
        <ele>349.7418826</ele>
        <time>2020-09-11T09:03:09Z</time>
      </trkpt>
      <trkpt lat="45.50702" lon="6.05334">
        <ele>347.5555917</ele>
        <time>2020-09-11T09:03:18Z</time>
      </trkpt>
      <trkpt lat="45.50699" lon="6.05321">
        <ele>345.4943668</ele>
        <time>2020-09-11T09:03:28Z</time>
      </trkpt>
      <trkpt lat="45.50694" lon="6.05309">
        <ele>344.7242872</ele>
        <time>2020-09-11T09:03:36Z</time>
      </trkpt>
      <trkpt lat="45.50694" lon="6.05322">
        <ele>342.0894447</ele>
        <time>2020-09-11T09:03:47Z</time>
      </trkpt>
      <trkpt lat="45.50686" lon="6.05316">
        <ele>340.2338015</ele>
        <time>2020-09-11T09:04:10Z</time>
      </trkpt>
      <trkpt lat="45.50683" lon="6.05303">
        <ele>339.6719798</ele>
        <time>2020-09-11T09:04:20Z</time>
      </trkpt>
      <trkpt lat="45.50677" lon="6.05291">
        <ele>338.7446462</ele>
        <time>2020-09-11T09:04:29Z</time>
      </trkpt>
      <trkpt lat="45.50671" lon="6.05281">
        <ele>337.2858499</ele>
        <time>2020-09-11T09:04:37Z</time>
      </trkpt>
      <trkpt lat="45.50666" lon="6.05269">
        <ele>336.1015715</ele>
        <time>2020-09-11T09:04:47Z</time>
      </trkpt>
      <trkpt lat="45.50658" lon="6.0526">
        <ele>333.8589531</ele>
        <time>2020-09-11T09:05:00Z</time>
      </trkpt>
      <trkpt lat="45.50652" lon="6.05251">
        <ele>331.1149612</ele>
        <time>2020-09-11T09:05:13Z</time>
      </trkpt>
      <trkpt lat="45.50648" lon="6.05239">
        <ele>328.7666113</ele>
        <time>2020-09-11T09:05:28Z</time>
      </trkpt>
      <trkpt lat="45.50643" lon="6.05227">
        <ele>326.225628</ele>
        <time>2020-09-11T09:05:40Z</time>
      </trkpt>
      <trkpt lat="45.50639" lon="6.05213">
        <ele>325.0821977</ele>
        <time>2020-09-11T09:05:49Z</time>
      </trkpt>
      <trkpt lat="45.50635" lon="6.05202">
        <ele>322.5866464</ele>
        <time>2020-09-11T09:06:02Z</time>
      </trkpt>
      <trkpt lat="45.5063" lon="6.05191">
        <ele>320.5910488</ele>
        <time>2020-09-11T09:06:13Z</time>
      </trkpt>
      <trkpt lat="45.50622" lon="6.0518">
        <ele>318.5959166</ele>
        <time>2020-09-11T09:06:26Z</time>
      </trkpt>
      <trkpt lat="45.50616" lon="6.05169">
        <ele>316.5027172</ele>
        <time>2020-09-11T09:06:37Z</time>
      </trkpt>
      <trkpt lat="45.5061" lon="6.0516">
        <ele>313.6110742</ele>
        <time>2020-09-11T09:06:49Z</time>
      </trkpt>
      <trkpt lat="45.50602" lon="6.05152">
        <ele>311.969988</ele>
        <time>2020-09-11T09:06:58Z</time>
      </trkpt>
      <trkpt lat="45.50595" lon="6.05145">
        <ele>310.6438914</ele>
        <time>2020-09-11T09:07:07Z</time>
      </trkpt>
      <trkpt lat="45.50586" lon="6.05138">
        <ele>309.2750374</ele>
        <time>2020-09-11T09:07:16Z</time>
      </trkpt>
      <trkpt lat="45.50578" lon="6.05132">
        <ele>307.2926022</ele>
        <time>2020-09-11T09:07:24Z</time>
      </trkpt>
      <trkpt lat="45.5057" lon="6.05124">
        <ele>306.2765306</ele>
        <time>2020-09-11T09:07:32Z</time>
      </trkpt>
      <trkpt lat="45.50561" lon="6.0512">
        <ele>304.5198778</ele>
        <time>2020-09-11T09:07:49Z</time>
      </trkpt>
      <trkpt lat="45.50552" lon="6.05126">
        <ele>302.5078178</ele>
        <time>2020-09-11T09:07:58Z</time>
      </trkpt>
      <trkpt lat="45.50543" lon="6.05123">
        <ele>299.4928718</ele>
        <time>2020-09-11T09:08:09Z</time>
      </trkpt>
      <trkpt lat="45.50534" lon="6.05126">
        <ele>299.1574985</ele>
        <time>2020-09-11T09:08:16Z</time>
      </trkpt>
      <trkpt lat="45.50524" lon="6.05129">
        <ele>297.6943598</ele>
        <time>2020-09-11T09:08:25Z</time>
      </trkpt>
      <trkpt lat="45.50513" lon="6.05127">
        <ele>296.6419008</ele>
        <time>2020-09-11T09:08:34Z</time>
      </trkpt>
      <trkpt lat="45.50504" lon="6.05127">
        <ele>296.0398143</ele>
        <time>2020-09-11T09:08:42Z</time>
      </trkpt>
      <trkpt lat="45.50494" lon="6.05129">
        <ele>295.2871255</ele>
        <time>2020-09-11T09:08:52Z</time>
      </trkpt>
      <trkpt lat="45.50485" lon="6.05134">
        <ele>294.8350686</ele>
        <time>2020-09-11T09:08:59Z</time>
      </trkpt>
      <trkpt lat="45.50476" lon="6.05138">
        <ele>294.5138056</ele>
        <time>2020-09-11T09:09:08Z</time>
      </trkpt>
      <trkpt lat="45.50467" lon="6.05145">
        <ele>294.8749947</ele>
        <time>2020-09-11T09:09:16Z</time>
      </trkpt>
      <trkpt lat="45.50458" lon="6.0515">
        <ele>293.702538</ele>
        <time>2020-09-11T09:09:24Z</time>
      </trkpt>
      <trkpt lat="45.5045" lon="6.05156">
        <ele>293.5979376</ele>
        <time>2020-09-11T09:09:31Z</time>
      </trkpt>
      <trkpt lat="45.50441" lon="6.05157">
        <ele>292.0156018</ele>
        <time>2020-09-11T09:09:40Z</time>
      </trkpt>
      <trkpt lat="45.50432" lon="6.05159">
        <ele>292.6184642</ele>
        <time>2020-09-11T09:09:47Z</time>
      </trkpt>
      <trkpt lat="45.50422" lon="6.05153">
        <ele>291.4727632</ele>
        <time>2020-09-11T09:09:55Z</time>
      </trkpt>
      <trkpt lat="45.50414" lon="6.05148">
        <ele>291.9313546</ele>
        <time>2020-09-11T09:10:03Z</time>
      </trkpt>
      <trkpt lat="45.50404" lon="6.0515">
        <ele>291.0893388</ele>
        <time>2020-09-11T09:10:14Z</time>
      </trkpt>
      <trkpt lat="45.50397" lon="6.05159">
        <ele>290.0642793</ele>
        <time>2020-09-11T09:10:23Z</time>
      </trkpt>
      <trkpt lat="45.50389" lon="6.05168">
        <ele>289.8994986</ele>
        <time>2020-09-11T09:10:31Z</time>
      </trkpt>
      <trkpt lat="45.50381" lon="6.05173">
        <ele>290.2827387</ele>
        <time>2020-09-11T09:10:39Z</time>
      </trkpt>
      <trkpt lat="45.50372" lon="6.05178">
        <ele>289.9548529</ele>
        <time>2020-09-11T09:10:46Z</time>
      </trkpt>
      <trkpt lat="45.50363" lon="6.05175">
        <ele>290.1676841</ele>
        <time>2020-09-11T09:10:54Z</time>
      </trkpt>
      <trkpt lat="45.50353" lon="6.05174">
        <ele>290.9367661</ele>
        <time>2020-09-11T09:11:00Z</time>
      </trkpt>
      <trkpt lat="45.50343" lon="6.05173">
        <ele>290.6495371</ele>
        <time>2020-09-11T09:11:07Z</time>
      </trkpt>
      <trkpt lat="45.50334" lon="6.05174">
        <ele>291.1790712</ele>
        <time>2020-09-11T09:11:15Z</time>
      </trkpt>
      <trkpt lat="45.50324" lon="6.05176">
        <ele>291.0381828</ele>
        <time>2020-09-11T09:11:24Z</time>
      </trkpt>
      <trkpt lat="45.50315" lon="6.05179">
        <ele>291.8049459</ele>
        <time>2020-09-11T09:11:31Z</time>
      </trkpt>
      <trkpt lat="45.50305" lon="6.05182">
        <ele>291.6782409</ele>
        <time>2020-09-11T09:11:42Z</time>
      </trkpt>
      <trkpt lat="45.50296" lon="6.05182">
        <ele>292.2191724</ele>
        <time>2020-09-11T09:11:49Z</time>
      </trkpt>
      <trkpt lat="45.50286" lon="6.05183">
        <ele>293.2961364</ele>
        <time>2020-09-11T09:11:57Z</time>
      </trkpt>
      <trkpt lat="45.50276" lon="6.05187">
        <ele>293.4253841</ele>
        <time>2020-09-11T09:12:05Z</time>
      </trkpt>
      <trkpt lat="45.50267" lon="6.05189">
        <ele>295.1137538</ele>
        <time>2020-09-11T09:12:12Z</time>
      </trkpt>
      <trkpt lat="45.50258" lon="6.05193">
        <ele>295.5728751</ele>
        <time>2020-09-11T09:12:19Z</time>
      </trkpt>
      <trkpt lat="45.5025" lon="6.05199">
        <ele>296.0131994</ele>
        <time>2020-09-11T09:13:04Z</time>
      </trkpt>
      <trkpt lat="45.50238" lon="6.052">
        <ele>295.2997363</ele>
        <time>2020-09-11T09:13:11Z</time>
      </trkpt>
      <trkpt lat="45.50228" lon="6.052">
        <ele>295.7075319</ele>
        <time>2020-09-11T09:13:28Z</time>
      </trkpt>
      <trkpt lat="45.50223" lon="6.05189">
        <ele>294.9793916</ele>
        <time>2020-09-11T09:13:36Z</time>
      </trkpt>
      <trkpt lat="45.50217" lon="6.05179">
        <ele>294.9285887</ele>
        <time>2020-09-11T09:13:44Z</time>
      </trkpt>
      <trkpt lat="45.50211" lon="6.05167">
        <ele>295.1310405</ele>
        <time>2020-09-11T09:13:54Z</time>
      </trkpt>
      <trkpt lat="45.50208" lon="6.05154">
        <ele>295.125667</ele>
        <time>2020-09-11T09:14:02Z</time>
      </trkpt>
      <trkpt lat="45.50203" lon="6.0514">
        <ele>294.2427368</ele>
        <time>2020-09-11T09:14:11Z</time>
      </trkpt>
      <trkpt lat="45.502" lon="6.05128">
        <ele>294.8172489</ele>
        <time>2020-09-11T09:14:19Z</time>
      </trkpt>
      <trkpt lat="45.50195" lon="6.05116">
        <ele>295.5800427</ele>
        <time>2020-09-11T09:14:27Z</time>
      </trkpt>
      <trkpt lat="45.50191" lon="6.05103">
        <ele>295.3160945</ele>
        <time>2020-09-11T09:14:34Z</time>
      </trkpt>
      <trkpt lat="45.50186" lon="6.05093">
        <ele>295.6699951</ele>
        <time>2020-09-11T09:14:41Z</time>
      </trkpt>
      <trkpt lat="45.50181" lon="6.05081">
        <ele>296.0134056</ele>
        <time>2020-09-11T09:14:51Z</time>
      </trkpt>
      <trkpt lat="45.50172" lon="6.05082">
        <ele>296.0263109</ele>
        <time>2020-09-11T09:14:58Z</time>
      </trkpt>
      <trkpt lat="45.50163" lon="6.05081">
        <ele>295.4700043</ele>
        <time>2020-09-11T09:15:08Z</time>
      </trkpt>
      <trkpt lat="45.50154" lon="6.05083">
        <ele>294.0499138</ele>
        <time>2020-09-11T09:15:14Z</time>
      </trkpt>
      <trkpt lat="45.50145" lon="6.05081">
        <ele>293.1643055</ele>
        <time>2020-09-11T09:15:24Z</time>
      </trkpt>
      <trkpt lat="45.50137" lon="6.05087">
        <ele>292.2837373</ele>
        <time>2020-09-11T09:15:34Z</time>
      </trkpt>
      <trkpt lat="45.50129" lon="6.05077">
        <ele>292.0108501</ele>
        <time>2020-09-11T09:15:45Z</time>
      </trkpt>
      <trkpt lat="45.5012" lon="6.05072">
        <ele>291.8357207</ele>
        <time>2020-09-11T09:15:53Z</time>
      </trkpt>
      <trkpt lat="45.5011" lon="6.05066">
        <ele>292.0506446</ele>
        <time>2020-09-11T09:16:04Z</time>
      </trkpt>
      <trkpt lat="45.50105" lon="6.05056">
        <ele>292.9702336</ele>
        <time>2020-09-11T09:16:12Z</time>
      </trkpt>
      <trkpt lat="45.50101" lon="6.05044">
        <ele>293.6470772</ele>
        <time>2020-09-11T09:16:17Z</time>
      </trkpt>
      <trkpt lat="45.50097" lon="6.05031">
        <ele>294.6511641</ele>
        <time>2020-09-11T09:16:27Z</time>
      </trkpt>
      <trkpt lat="45.5009" lon="6.05022">
        <ele>295.5201939</ele>
        <time>2020-09-11T09:16:33Z</time>
      </trkpt>
      <trkpt lat="45.50085" lon="6.05009">
        <ele>295.7169489</ele>
        <time>2020-09-11T09:16:41Z</time>
      </trkpt>
      <trkpt lat="45.50081" lon="6.04996">
        <ele>295.8966059</ele>
        <time>2020-09-11T09:16:48Z</time>
      </trkpt>
      <trkpt lat="45.50074" lon="6.04986">
        <ele>296.3062633</ele>
        <time>2020-09-11T09:16:55Z</time>
      </trkpt>
      <trkpt lat="45.50067" lon="6.04979">
        <ele>295.6633962</ele>
        <time>2020-09-11T09:17:02Z</time>
      </trkpt>
      <trkpt lat="45.50058" lon="6.04972">
        <ele>296.7603238</ele>
        <time>2020-09-11T09:17:09Z</time>
      </trkpt>
      <trkpt lat="45.50052" lon="6.04961">
        <ele>294.9153687</ele>
        <time>2020-09-11T09:17:19Z</time>
      </trkpt>
    </trkseg>
  </trk>
</gpx>